UAE752 GMMN-OMDB
Flight info
| Callsign | UAE752 |
|---|---|
| Flight time | 6h 51m |
| Altitude | 35000 |
| Route | SADIC UR975 FES/N0468F370 UA411 ORSUP UZ888 BABOR UA31 TBS UA856 JBA UA411 TANLI A411 TOKBU/N0462F390 A411 LOSUL M855 MMA P751 DASUM Y234 FYM M872 BDB Y214 RAPMA DCT KUVSO DCT KATIT DCT PEKEM M628 RIGIL G783 ELUDA/N0456F350 G783 ASPED Q308 KIPOK Q568 IMPED |
| Aircraft | A388/J-SADE2E3FGHIJ3J4J5M1RWXY/LB1D1 |
Departure
| Time | 2026-05-07 09:48 |
|---|---|
| Airport | Mohammed V International Airport (GMMN) |
Arrival
| Time | 2026-05-07 16:40 |
|---|---|
| Airport | Dubai International Airport (OMDB) |
| Time | Latitude | Longitude | Altitude | Speed | Heading |
|---|---|---|---|---|---|
| 2026-05-07 09:06 | 33.37620 | -7.58343 | 657 ft | 0 kts | 122° |
| 2026-05-07 09:32 | 33.37622 | -7.58347 | 658 ft | 1 kts | 122° |
| 2026-05-07 09:33 | 33.37626 | -7.58353 | 658 ft | 1 kts | 122° |
| 2026-05-07 09:33 | 33.37629 | -7.58360 | 657 ft | 1 kts | 122° |
| 2026-05-07 09:33 | 33.37634 | -7.58369 | 658 ft | 2 kts | 122° |
| 2026-05-07 09:33 | 33.37640 | -7.58382 | 657 ft | 2 kts | 122° |
| 2026-05-07 09:34 | 33.37647 | -7.58395 | 655 ft | 2 kts | 122° |
| 2026-05-07 09:34 | 33.37654 | -7.58407 | 656 ft | 2 kts | 122° |
| 2026-05-07 09:34 | 33.37661 | -7.58420 | 655 ft | 2 kts | 126° |
| 2026-05-07 09:34 | 33.37670 | -7.58432 | 656 ft | 3 kts | 132° |
| 2026-05-07 09:35 | 33.37693 | -7.58452 | 655 ft | 4 kts | 156° |
| 2026-05-07 09:35 | 33.37712 | -7.58459 | 656 ft | 0 kts | 167° |
| 2026-05-07 09:35 | 33.37718 | -7.58459 | 656 ft | 2 kts | 179° |
| 2026-05-07 09:35 | 33.37728 | -7.58455 | 656 ft | 2 kts | 200° |
| 2026-05-07 09:36 | 33.37734 | -7.58449 | 655 ft | 1 kts | 223° |
| 2026-05-07 09:36 | 33.37737 | -7.58442 | 655 ft | 1 kts | 244° |
| 2026-05-07 09:36 | 33.37738 | -7.58433 | 656 ft | 2 kts | 265° |
| 2026-05-07 09:36 | 33.37739 | -7.58418 | 656 ft | 2 kts | 263° |
| 2026-05-07 09:37 | 33.37741 | -7.58407 | 656 ft | 0 kts | 261° |
| 2026-05-07 09:39 | 33.37741 | -7.58409 | 658 ft | 1 kts | 261° |
| 2026-05-07 09:39 | 33.37737 | -7.58437 | 658 ft | 5 kts | 263° |
| 2026-05-07 09:40 | 33.37739 | -7.58454 | 658 ft | 1 kts | 314° |
| 2026-05-07 09:40 | 33.37750 | -7.58462 | 658 ft | 3 kts | 339° |
| 2026-05-07 09:40 | 33.37780 | -7.58480 | 658 ft | 7 kts | 331° |
| 2026-05-07 09:40 | 33.37830 | -7.58523 | 658 ft | 11 kts | 310° |
| 2026-05-07 09:41 | 33.37880 | -7.58607 | 658 ft | 14 kts | 305° |
| 2026-05-07 09:41 | 33.37910 | -7.58709 | 658 ft | 13 kts | 267° |
| 2026-05-07 09:41 | 33.37872 | -7.58798 | 658 ft | 11 kts | 210° |
| 2026-05-07 09:41 | 33.37810 | -7.58794 | 657 ft | 11 kts | 165° |
| 2026-05-07 09:42 | 33.37723 | -7.58762 | 658 ft | 15 kts | 165° |
| 2026-05-07 09:42 | 33.37610 | -7.58725 | 658 ft | 18 kts | 164° |
| 2026-05-07 09:42 | 33.37481 | -7.58680 | 658 ft | 21 kts | 164° |
| 2026-05-07 09:42 | 33.37334 | -7.58630 | 658 ft | 23 kts | 164° |
| 2026-05-07 09:43 | 33.37179 | -7.58577 | 658 ft | 24 kts | 164° |
| 2026-05-07 09:43 | 33.37014 | -7.58520 | 658 ft | 25 kts | 163° |
| 2026-05-07 09:43 | 33.36845 | -7.58460 | 658 ft | 26 kts | 163° |
| 2026-05-07 09:43 | 33.36671 | -7.58402 | 658 ft | 26 kts | 164° |
| 2026-05-07 09:44 | 33.36495 | -7.58343 | 658 ft | 26 kts | 164° |
| 2026-05-07 09:44 | 33.36317 | -7.58281 | 657 ft | 27 kts | 163° |
| 2026-05-07 09:44 | 33.36139 | -7.58219 | 657 ft | 27 kts | 165° |
| 2026-05-07 09:44 | 33.35960 | -7.58159 | 657 ft | 27 kts | 163° |
| 2026-05-07 09:45 | 33.35780 | -7.58096 | 657 ft | 27 kts | 163° |
| 2026-05-07 09:45 | 33.35598 | -7.58035 | 657 ft | 27 kts | 164° |
| 2026-05-07 09:45 | 33.35418 | -7.57974 | 657 ft | 20 kts | 164° |
| 2026-05-07 09:45 | 33.35321 | -7.57946 | 658 ft | 14 kts | 181° |
| 2026-05-07 09:46 | 33.35254 | -7.58013 | 658 ft | 14 kts | 245° |
| 2026-05-07 09:46 | 33.35227 | -7.58124 | 658 ft | 14 kts | 254° |
| 2026-05-07 09:46 | 33.35203 | -7.58224 | 659 ft | 7 kts | 255° |
| 2026-05-07 09:46 | 33.35204 | -7.58255 | 659 ft | 1 kts | 319° |
| 2026-05-07 09:47 | 33.35211 | -7.58260 | 659 ft | 1 kts | 347° |
| 2026-05-07 09:47 | 33.35215 | -7.58261 | 659 ft | 1 kts | 347° |
| 2026-05-07 09:47 | 33.35346 | -7.58303 | 657 ft | 53 kts | 343° |
| 2026-05-07 09:47 | 33.35945 | -7.58509 | 653 ft | 120 kts | 344° |
| 2026-05-07 09:48 | 33.36880 | -7.58830 | 660 ft | 159 kts | 344° |
| 2026-05-07 09:48 | 33.37965 | -7.59178 | 1048 ft | 162 kts | 345° |
| 2026-05-07 09:48 | 33.39064 | -7.59530 | 1484 ft | 166 kts | 345° |
| 2026-05-07 09:48 | 33.40191 | -7.59904 | 1915 ft | 168 kts | 347° |
| 2026-05-07 09:49 | 33.40971 | -7.60019 | 2186 ft | 172 kts | 0° |
| 2026-05-07 09:49 | 33.42178 | -7.59910 | 2472 ft | 181 kts | 6° |
| 2026-05-07 09:49 | 33.43460 | -7.59566 | 2593 ft | 197 kts | 21° |
| 2026-05-07 09:49 | 33.44844 | -7.58036 | 2754 ft | 225 kts | 63° |
| 2026-05-07 09:50 | 33.45248 | -7.56835 | 2941 ft | 238 kts | 71° |
| 2026-05-07 09:50 | 33.45906 | -7.54159 | 3432 ft | 262 kts | 73° |
| 2026-05-07 09:50 | 33.46253 | -7.52735 | 3870 ft | 265 kts | 73° |
| 2026-05-07 09:50 | 33.47000 | -7.49922 | 4759 ft | 272 kts | 71° |
| 2026-05-07 09:51 | 33.47418 | -7.48457 | 4973 ft | 276 kts | 71° |
| 2026-05-07 09:51 | 33.48063 | -7.46276 | 5613 ft | 278 kts | 71° |
| 2026-05-07 09:51 | 33.48707 | -7.44089 | 6345 ft | 280 kts | 71° |
| 2026-05-07 09:51 | 33.49356 | -7.41883 | 6995 ft | 284 kts | 71° |
| 2026-05-07 09:52 | 33.50013 | -7.39648 | 7632 ft | 288 kts | 71° |
| 2026-05-07 09:52 | 33.50686 | -7.37364 | 8269 ft | 292 kts | 71° |
| 2026-05-07 09:52 | 33.51369 | -7.35045 | 8921 ft | 297 kts | 70° |
| 2026-05-07 09:52 | 33.52082 | -7.32625 | 9148 ft | 317 kts | 70° |
| 2026-05-07 09:53 | 33.52839 | -7.30055 | 9327 ft | 336 kts | 70° |
| 2026-05-07 09:53 | 33.53637 | -7.27346 | 9515 ft | 353 kts | 70° |
| 2026-05-07 09:53 | 33.54474 | -7.24502 | 9705 ft | 370 kts | 70° |
| 2026-05-07 09:53 | 33.55334 | -7.21574 | 10227 ft | 374 kts | 70° |
| 2026-05-07 09:54 | 33.56190 | -7.18653 | 10750 ft | 378 kts | 70° |
| 2026-05-07 09:54 | 33.57076 | -7.15625 | 11275 ft | 383 kts | 70° |
| 2026-05-07 09:54 | 33.57952 | -7.12629 | 11812 ft | 387 kts | 70° |
| 2026-05-07 09:54 | 33.58846 | -7.09566 | 12340 ft | 391 kts | 70° |
| 2026-05-07 09:55 | 33.59750 | -7.06467 | 12866 ft | 396 kts | 70° |
| 2026-05-07 09:55 | 33.60666 | -7.03324 | 13396 ft | 400 kts | 70° |
| 2026-05-07 09:55 | 33.61588 | -7.00154 | 13889 ft | 404 kts | 70° |
| 2026-05-07 09:55 | 33.62517 | -6.96958 | 14371 ft | 408 kts | 69° |
| 2026-05-07 09:56 | 33.63455 | -6.93726 | 14810 ft | 412 kts | 69° |
| 2026-05-07 09:56 | 33.64401 | -6.90441 | 15002 ft | 423 kts | 71° |
| 2026-05-07 09:56 | 33.65108 | -6.86973 | 15351 ft | 429 kts | 79° |
| 2026-05-07 09:56 | 33.65639 | -6.83430 | 15740 ft | 433 kts | 78° |
| 2026-05-07 09:57 | 33.66193 | -6.79870 | 16159 ft | 436 kts | 78° |
| 2026-05-07 09:57 | 33.66681 | -6.76765 | 16480 ft | 440 kts | 78° |
| 2026-05-07 09:57 | 33.67251 | -6.73139 | 16892 ft | 443 kts | 78° |
| 2026-05-07 09:57 | 33.67819 | -6.69508 | 17280 ft | 446 kts | 78° |
| 2026-05-07 09:58 | 33.68386 | -6.65865 | 17664 ft | 450 kts | 78° |
| 2026-05-07 09:58 | 33.68961 | -6.62158 | 18026 ft | 453 kts | 78° |
| 2026-05-07 09:58 | 33.69538 | -6.58426 | 18386 ft | 457 kts | 78° |
| 2026-05-07 09:58 | 33.70118 | -6.54669 | 18746 ft | 458 kts | 78° |
| 2026-05-07 09:59 | 33.70698 | -6.50896 | 19105 ft | 460 kts | 78° |
| 2026-05-07 09:59 | 33.71279 | -6.47109 | 19444 ft | 462 kts | 78° |
| 2026-05-07 09:59 | 33.71862 | -6.43309 | 19784 ft | 465 kts | 78° |
| 2026-05-07 09:59 | 33.72449 | -6.39473 | 20141 ft | 467 kts | 77° |
| 2026-05-07 10:00 | 33.73036 | -6.35630 | 20495 ft | 469 kts | 77° |
| 2026-05-07 10:00 | 33.73624 | -6.31774 | 20818 ft | 471 kts | 77° |
| 2026-05-07 10:00 | 33.74214 | -6.27890 | 21134 ft | 473 kts | 77° |
| 2026-05-07 10:00 | 33.74806 | -6.23994 | 21463 ft | 475 kts | 77° |
| 2026-05-07 10:01 | 33.75399 | -6.20074 | 21803 ft | 477 kts | 77° |
| 2026-05-07 10:01 | 33.75991 | -6.16146 | 22135 ft | 479 kts | 77° |
| 2026-05-07 10:01 | 33.76586 | -6.12192 | 22497 ft | 481 kts | 77° |
| 2026-05-07 10:01 | 33.77181 | -6.08231 | 22848 ft | 483 kts | 77° |
| 2026-05-07 10:02 | 33.77778 | -6.04247 | 23199 ft | 486 kts | 77° |
| 2026-05-07 10:02 | 33.78370 | -6.00291 | 23538 ft | 488 kts | 77° |
| 2026-05-07 10:02 | 33.78970 | -5.96271 | 23838 ft | 490 kts | 77° |
| 2026-05-07 10:02 | 33.79571 | -5.92231 | 24204 ft | 491 kts | 77° |
| 2026-05-07 10:03 | 33.80171 | -5.88190 | 24517 ft | 494 kts | 77° |
| 2026-05-07 10:03 | 33.80777 | -5.84106 | 24846 ft | 496 kts | 77° |
| 2026-05-07 10:03 | 33.81382 | -5.80012 | 25195 ft | 498 kts | 77° |
| 2026-05-07 10:03 | 33.81987 | -5.75907 | 25550 ft | 500 kts | 77° |
| 2026-05-07 10:04 | 33.82595 | -5.71772 | 25901 ft | 503 kts | 76° |
| 2026-05-07 10:04 | 33.83205 | -5.67617 | 26264 ft | 505 kts | 76° |
| 2026-05-07 10:04 | 33.83815 | -5.63449 | 26627 ft | 508 kts | 76° |
| 2026-05-07 10:04 | 33.84427 | -5.59258 | 27009 ft | 510 kts | 76° |
| 2026-05-07 10:05 | 33.85043 | -5.55037 | 27394 ft | 513 kts | 76° |
| 2026-05-07 10:05 | 33.85659 | -5.50806 | 27780 ft | 515 kts | 76° |
| 2026-05-07 10:05 | 33.86277 | -5.46547 | 28154 ft | 518 kts | 76° |
| 2026-05-07 10:05 | 33.86898 | -5.42263 | 28553 ft | 521 kts | 76° |
| 2026-05-07 10:06 | 33.87519 | -5.37960 | 28960 ft | 523 kts | 76° |
| 2026-05-07 10:06 | 33.88142 | -5.33634 | 29332 ft | 526 kts | 76° |
| 2026-05-07 10:06 | 33.88765 | -5.29295 | 29708 ft | 528 kts | 76° |
| 2026-05-07 10:06 | 33.89392 | -5.24921 | 30104 ft | 531 kts | 76° |
| 2026-05-07 10:07 | 33.90021 | -5.20532 | 30445 ft | 534 kts | 76° |
| 2026-05-07 10:07 | 33.90652 | -5.16113 | 30800 ft | 536 kts | 77° |
| 2026-05-07 10:07 | 33.91275 | -5.11739 | 31159 ft | 539 kts | 77° |
| 2026-05-07 10:07 | 33.91907 | -5.07284 | 31455 ft | 542 kts | 77° |
| 2026-05-07 10:08 | 33.92574 | -5.02800 | 31788 ft | 543 kts | 74° |
| 2026-05-07 10:08 | 33.93588 | -4.98424 | 32137 ft | 543 kts | 67° |
| 2026-05-07 10:08 | 33.94867 | -4.94146 | 32434 ft | 545 kts | 67° |
| 2026-05-07 10:08 | 33.96141 | -4.89837 | 32896 ft | 545 kts | 67° |
| 2026-05-07 10:09 | 33.97398 | -4.85544 | 33414 ft | 543 kts | 68° |
| 2026-05-07 10:09 | 33.98652 | -4.81255 | 33901 ft | 543 kts | 68° |
| 2026-05-07 10:09 | 33.99906 | -4.76959 | 34297 ft | 543 kts | 68° |
| 2026-05-07 10:09 | 34.01163 | -4.72656 | 34581 ft | 546 kts | 68° |
| 2026-05-07 10:10 | 34.02423 | -4.68335 | 34913 ft | 547 kts | 68° |
| 2026-05-07 10:10 | 34.03685 | -4.64002 | 35239 ft | 548 kts | 68° |
| 2026-05-07 10:10 | 34.04949 | -4.59656 | 35593 ft | 550 kts | 69° |
| 2026-05-07 10:10 | 34.06215 | -4.55298 | 35855 ft | 552 kts | 69° |
| 2026-05-07 10:11 | 34.07484 | -4.50921 | 36167 ft | 553 kts | 69° |
| 2026-05-07 10:11 | 34.08755 | -4.46531 | 36502 ft | 555 kts | 69° |
| 2026-05-07 10:11 | 34.10023 | -4.42146 | 36797 ft | 556 kts | 69° |
| 2026-05-07 10:11 | 34.11299 | -4.37725 | 37077 ft | 558 kts | 69° |
| 2026-05-07 10:12 | 34.12573 | -4.33306 | 37402 ft | 559 kts | 70° |
| 2026-05-07 10:12 | 34.13850 | -4.28867 | 37713 ft | 560 kts | 70° |
| 2026-05-07 10:12 | 34.15124 | -4.24430 | 38024 ft | 561 kts | 70° |
| 2026-05-07 10:12 | 34.16384 | -4.20036 | 38291 ft | 562 kts | 70° |
| 2026-05-07 10:13 | 34.17662 | -4.15570 | 38605 ft | 563 kts | 71° |
| 2026-05-07 10:13 | 34.18917 | -4.11078 | 38872 ft | 564 kts | 71° |
| 2026-05-07 10:13 | 34.20150 | -4.06571 | 38975 ft | 566 kts | 72° |
| 2026-05-07 10:14 | 34.22612 | -3.97537 | 38983 ft | 567 kts | 71° |
| 2026-05-07 10:14 | 34.25273 | -3.88574 | 38969 ft | 567 kts | 69° |
| 2026-05-07 10:15 | 34.28021 | -3.79614 | 38963 ft | 569 kts | 70° |
| 2026-05-07 10:15 | 34.30738 | -3.70615 | 38953 ft | 569 kts | 70° |
| 2026-05-07 10:16 | 34.33434 | -3.61610 | 38950 ft | 569 kts | 70° |
| 2026-05-07 10:16 | 34.36126 | -3.52583 | 38947 ft | 570 kts | 70° |
| 2026-05-07 10:17 | 34.38807 | -3.43565 | 38944 ft | 570 kts | 71° |
| 2026-05-07 10:17 | 34.41470 | -3.34583 | 38942 ft | 571 kts | 71° |
| 2026-05-07 10:18 | 34.44160 | -3.25479 | 38938 ft | 570 kts | 71° |
| 2026-05-07 10:18 | 34.46810 | -3.16483 | 38936 ft | 571 kts | 71° |
| 2026-05-07 10:19 | 34.49474 | -3.07412 | 38936 ft | 571 kts | 71° |
| 2026-05-07 10:19 | 34.52131 | -2.98337 | 38932 ft | 572 kts | 71° |
| 2026-05-07 10:20 | 34.54786 | -2.89238 | 38937 ft | 572 kts | 71° |
| 2026-05-07 10:20 | 34.57434 | -2.80135 | 38938 ft | 573 kts | 72° |
| 2026-05-07 10:21 | 34.60081 | -2.71006 | 38942 ft | 573 kts | 72° |
| 2026-05-07 10:21 | 34.62717 | -2.61885 | 38941 ft | 574 kts | 72° |
| 2026-05-07 10:22 | 34.65347 | -2.52758 | 38949 ft | 574 kts | 72° |
| 2026-05-07 10:22 | 34.67980 | -2.43589 | 38955 ft | 574 kts | 72° |
| 2026-05-07 10:23 | 34.70606 | -2.34414 | 38962 ft | 575 kts | 72° |
| 2026-05-07 10:23 | 34.73225 | -2.25234 | 38972 ft | 575 kts | 72° |
| 2026-05-07 10:24 | 34.75838 | -2.16043 | 38984 ft | 575 kts | 72° |
| 2026-05-07 10:24 | 34.78430 | -2.06901 | 38991 ft | 576 kts | 72° |
| 2026-05-07 10:25 | 34.81036 | -1.97678 | 38993 ft | 576 kts | 72° |
| 2026-05-07 10:25 | 34.83633 | -1.88456 | 38993 ft | 576 kts | 72° |
| 2026-05-07 10:26 | 34.86690 | -1.79426 | 38993 ft | 578 kts | 64° |
| 2026-05-07 10:26 | 34.90218 | -1.70638 | 38988 ft | 578 kts | 64° |
| 2026-05-07 10:27 | 34.93719 | -1.61827 | 38991 ft | 578 kts | 64° |
| 2026-05-07 10:27 | 34.97217 | -1.52997 | 38993 ft | 578 kts | 64° |
| 2026-05-07 10:28 | 35.00683 | -1.44226 | 38992 ft | 578 kts | 64° |
| 2026-05-07 10:28 | 35.04170 | -1.35375 | 38991 ft | 579 kts | 65° |
| 2026-05-07 10:29 | 35.07651 | -1.26520 | 38990 ft | 579 kts | 65° |
| 2026-05-07 10:29 | 35.11125 | -1.17657 | 38986 ft | 579 kts | 65° |
| 2026-05-07 10:30 | 35.16328 | -1.04336 | 38982 ft | 579 kts | 65° |
| 2026-05-07 10:30 | 35.19791 | -0.95441 | 38980 ft | 580 kts | 65° |
| 2026-05-07 10:31 | 35.23239 | -0.86559 | 38983 ft | 579 kts | 65° |
| 2026-05-07 10:31 | 35.26695 | -0.77632 | 38980 ft | 580 kts | 65° |
| 2026-05-07 10:32 | 35.30146 | -0.68692 | 38973 ft | 581 kts | 65° |
| 2026-05-07 10:32 | 35.33587 | -0.59751 | 38970 ft | 581 kts | 65° |
| 2026-05-07 10:33 | 35.37027 | -0.50793 | 38968 ft | 581 kts | 65° |
| 2026-05-07 10:33 | 35.40464 | -0.41814 | 38968 ft | 582 kts | 65° |
| 2026-05-07 10:34 | 35.43898 | -0.32817 | 38972 ft | 583 kts | 65° |
| 2026-05-07 10:34 | 35.47329 | -0.23803 | 38970 ft | 584 kts | 65° |
| 2026-05-07 10:35 | 35.50753 | -0.14786 | 38963 ft | 582 kts | 65° |
| 2026-05-07 10:35 | 35.54151 | -0.05808 | 38963 ft | 584 kts | 65° |
| 2026-05-07 10:36 | 35.57566 | 0.03236 | 38974 ft | 578 kts | 66° |
| 2026-05-07 10:36 | 35.59238 | 0.07668 | 38967 ft | 567 kts | 66° |
| 2026-05-07 10:36 | 35.60888 | 0.12054 | 38967 ft | 567 kts | 66° |
| 2026-05-07 10:37 | 35.64204 | 0.20894 | 38966 ft | 571 kts | 66° |
| 2026-05-07 10:37 | 35.67528 | 0.29778 | 38962 ft | 571 kts | 67° |
| 2026-05-07 10:38 | 35.70846 | 0.38667 | 38959 ft | 571 kts | 67° |
| 2026-05-07 10:38 | 35.74151 | 0.47544 | 38961 ft | 571 kts | 67° |
| 2026-05-07 10:39 | 35.77452 | 0.56438 | 38957 ft | 571 kts | 67° |
| 2026-05-07 10:39 | 35.80748 | 0.65341 | 38954 ft | 572 kts | 67° |
| 2026-05-07 10:40 | 35.83481 | 0.72746 | 38954 ft | 572 kts | 67° |
| 2026-05-07 10:40 | 35.87331 | 0.83204 | 38956 ft | 572 kts | 68° |
| 2026-05-07 10:41 | 35.90615 | 0.92151 | 38949 ft | 573 kts | 68° |
| 2026-05-07 10:41 | 35.93870 | 1.01047 | 38945 ft | 573 kts | 68° |
| 2026-05-07 10:42 | 35.96613 | 1.08561 | 38949 ft | 574 kts | 68° |
| 2026-05-07 10:42 | 35.99883 | 1.17542 | 38953 ft | 575 kts | 68° |
| 2026-05-07 10:43 | 36.03150 | 1.26543 | 38954 ft | 574 kts | 68° |
| 2026-05-07 10:43 | 36.06387 | 1.35485 | 38962 ft | 574 kts | 68° |
| 2026-05-07 10:44 | 36.09634 | 1.44517 | 38961 ft | 574 kts | 70° |
| 2026-05-07 10:44 | 36.11993 | 1.53873 | 38956 ft | 568 kts | 82° |
| 2026-05-07 10:45 | 36.13202 | 1.63486 | 38950 ft | 565 kts | 86° |
| 2026-05-07 10:45 | 36.14359 | 1.73109 | 38946 ft | 566 kts | 86° |
| 2026-05-07 10:46 | 36.15501 | 1.82738 | 38938 ft | 567 kts | 86° |
| 2026-05-07 10:46 | 36.16631 | 1.92393 | 38947 ft | 568 kts | 87° |
| 2026-05-07 10:47 | 36.17756 | 2.02073 | 38932 ft | 569 kts | 87° |
| 2026-05-07 10:47 | 36.18878 | 2.11761 | 38934 ft | 569 kts | 87° |
| 2026-05-07 10:48 | 36.19992 | 2.21463 | 38933 ft | 570 kts | 88° |
| 2026-05-07 10:48 | 36.21101 | 2.31188 | 38939 ft | 570 kts | 88° |
| 2026-05-07 10:49 | 36.22202 | 2.40916 | 38933 ft | 571 kts | 88° |
| 2026-05-07 10:49 | 36.23297 | 2.50669 | 38931 ft | 572 kts | 88° |
| 2026-05-07 10:50 | 36.24387 | 2.60444 | 38930 ft | 573 kts | 89° |
| 2026-05-07 10:50 | 36.25461 | 2.70172 | 38928 ft | 575 kts | 89° |
| 2026-05-07 10:51 | 36.26536 | 2.79995 | 38929 ft | 577 kts | 89° |
| 2026-05-07 10:51 | 36.27605 | 2.89848 | 38928 ft | 579 kts | 90° |
| 2026-05-07 10:52 | 36.28672 | 2.99741 | 38927 ft | 580 kts | 90° |
| 2026-05-07 10:52 | 36.29730 | 3.09636 | 38926 ft | 580 kts | 90° |
| 2026-05-07 10:53 | 36.30786 | 3.19589 | 38924 ft | 582 kts | 91° |
| 2026-05-07 10:53 | 36.31833 | 3.29542 | 38923 ft | 583 kts | 91° |
| 2026-05-07 10:54 | 36.32874 | 3.39520 | 38914 ft | 584 kts | 91° |
| 2026-05-07 10:54 | 36.33909 | 3.49525 | 38910 ft | 585 kts | 91° |
| 2026-05-07 10:55 | 36.34937 | 3.59546 | 38912 ft | 586 kts | 91° |
| 2026-05-07 10:55 | 36.35958 | 3.69589 | 38906 ft | 588 kts | 91° |
| 2026-05-07 10:56 | 36.36968 | 3.79587 | 38905 ft | 588 kts | 91° |
| 2026-05-07 10:56 | 36.37977 | 3.89669 | 38910 ft | 589 kts | 91° |
| 2026-05-07 10:57 | 36.38979 | 3.99767 | 38908 ft | 590 kts | 91° |
| 2026-05-07 10:57 | 36.39973 | 4.09878 | 38912 ft | 591 kts | 91° |
| 2026-05-07 10:58 | 36.40960 | 4.20006 | 38911 ft | 591 kts | 91° |
| 2026-05-07 10:58 | 36.41940 | 4.30137 | 38915 ft | 590 kts | 91° |
| 2026-05-07 10:59 | 36.42909 | 4.40266 | 38924 ft | 591 kts | 91° |
| 2026-05-07 10:59 | 36.43871 | 4.50405 | 38920 ft | 591 kts | 91° |
| 2026-05-07 11:00 | 36.44826 | 4.60551 | 38923 ft | 590 kts | 91° |
| 2026-05-07 11:00 | 36.45762 | 4.70598 | 38923 ft | 591 kts | 91° |
| 2026-05-07 11:01 | 36.46699 | 4.80755 | 38919 ft | 591 kts | 91° |
| 2026-05-07 11:01 | 36.47627 | 4.90894 | 38917 ft | 588 kts | 91° |
| 2026-05-07 11:02 | 36.48103 | 5.00954 | 38919 ft | 576 kts | 101° |
| 2026-05-07 11:02 | 36.47206 | 5.10702 | 38917 ft | 564 kts | 108° |
| 2026-05-07 11:03 | 36.46079 | 5.20355 | 38920 ft | 565 kts | 108° |
| 2026-05-07 11:03 | 36.44961 | 5.29984 | 38932 ft | 564 kts | 108° |
| 2026-05-07 11:04 | 36.43832 | 5.39579 | 38938 ft | 565 kts | 108° |
| 2026-05-07 11:04 | 36.42687 | 5.49216 | 38936 ft | 564 kts | 108° |
| 2026-05-07 11:05 | 36.41535 | 5.58850 | 38934 ft | 565 kts | 108° |
| 2026-05-07 11:05 | 36.40370 | 5.68497 | 38935 ft | 565 kts | 107° |
| 2026-05-07 11:06 | 36.39202 | 5.78133 | 38928 ft | 566 kts | 107° |
| 2026-05-07 11:06 | 36.38022 | 5.87817 | 38944 ft | 568 kts | 107° |
| 2026-05-07 11:07 | 36.36877 | 5.97511 | 38940 ft | 566 kts | 109° |
| 2026-05-07 11:07 | 36.35909 | 6.02173 | 38940 ft | 552 kts | 120° |
| 2026-05-07 11:07 | 36.34386 | 6.06464 | 38934 ft | 538 kts | 129° |
| 2026-05-07 11:08 | 36.30854 | 6.14679 | 38928 ft | 540 kts | 128° |
| 2026-05-07 11:08 | 36.27319 | 6.22899 | 38932 ft | 542 kts | 128° |
| 2026-05-07 11:09 | 36.23755 | 6.31154 | 38930 ft | 543 kts | 128° |
| 2026-05-07 11:09 | 36.20182 | 6.39401 | 38934 ft | 544 kts | 128° |
| 2026-05-07 11:10 | 36.16617 | 6.47603 | 38936 ft | 545 kts | 128° |
| 2026-05-07 11:10 | 36.13023 | 6.55855 | 38932 ft | 545 kts | 128° |
| 2026-05-07 11:11 | 36.09411 | 6.64127 | 38930 ft | 546 kts | 129° |
| 2026-05-07 11:11 | 36.05797 | 6.72387 | 38925 ft | 546 kts | 129° |
| 2026-05-07 11:12 | 36.02181 | 6.80628 | 38921 ft | 547 kts | 129° |
| 2026-05-07 11:12 | 35.98549 | 6.88881 | 38916 ft | 547 kts | 129° |
| 2026-05-07 11:13 | 35.94907 | 6.97136 | 38919 ft | 548 kts | 129° |
| 2026-05-07 11:13 | 35.91258 | 7.05390 | 38918 ft | 548 kts | 129° |
| 2026-05-07 11:14 | 35.87599 | 7.13646 | 38916 ft | 549 kts | 129° |
| 2026-05-07 11:14 | 35.83958 | 7.21840 | 38916 ft | 550 kts | 129° |
| 2026-05-07 11:15 | 35.80272 | 7.30115 | 38909 ft | 550 kts | 129° |
| 2026-05-07 11:15 | 35.76584 | 7.38376 | 38920 ft | 550 kts | 129° |
| 2026-05-07 11:16 | 35.72890 | 7.46629 | 38917 ft | 551 kts | 128° |
| 2026-05-07 11:16 | 35.69190 | 7.54876 | 38915 ft | 551 kts | 128° |
| 2026-05-07 11:17 | 35.65476 | 7.63131 | 38917 ft | 552 kts | 129° |
| 2026-05-07 11:17 | 35.61755 | 7.71381 | 38916 ft | 552 kts | 128° |
| 2026-05-07 11:18 | 35.58024 | 7.79638 | 38921 ft | 552 kts | 128° |
| 2026-05-07 11:18 | 35.54286 | 7.87887 | 38951 ft | 553 kts | 128° |
| 2026-05-07 11:19 | 35.50547 | 7.96121 | 38957 ft | 553 kts | 128° |
| 2026-05-07 11:19 | 35.46791 | 8.04372 | 38965 ft | 553 kts | 128° |
| 2026-05-07 11:20 | 35.42745 | 8.12311 | 38964 ft | 547 kts | 133° |
| 2026-05-07 11:20 | 35.38590 | 8.20111 | 38960 ft | 546 kts | 133° |
| 2026-05-07 11:21 | 35.34435 | 8.27910 | 38950 ft | 546 kts | 133° |
| 2026-05-07 11:21 | 35.30302 | 8.35636 | 38933 ft | 546 kts | 133° |
| 2026-05-07 11:22 | 35.26137 | 8.43403 | 38910 ft | 545 kts | 133° |
| 2026-05-07 11:22 | 35.21976 | 8.51143 | 38900 ft | 544 kts | 133° |
| 2026-05-07 11:23 | 35.17814 | 8.58870 | 38901 ft | 544 kts | 133° |
| 2026-05-07 11:23 | 35.13647 | 8.66586 | 38895 ft | 543 kts | 133° |
| 2026-05-07 11:24 | 35.09473 | 8.74299 | 38899 ft | 544 kts | 133° |
| 2026-05-07 11:24 | 35.05299 | 8.81998 | 38895 ft | 544 kts | 133° |
| 2026-05-07 11:25 | 35.01114 | 8.89698 | 38893 ft | 544 kts | 133° |
| 2026-05-07 11:25 | 34.96933 | 8.97376 | 38888 ft | 543 kts | 133° |
| 2026-05-07 11:26 | 34.92745 | 9.05047 | 38888 ft | 543 kts | 132° |
| 2026-05-07 11:26 | 34.88548 | 9.12719 | 38888 ft | 544 kts | 132° |
| 2026-05-07 11:27 | 34.84257 | 9.20208 | 38891 ft | 541 kts | 135° |
| 2026-05-07 11:27 | 34.79803 | 9.27591 | 38894 ft | 541 kts | 135° |
| 2026-05-07 11:28 | 34.75349 | 9.34984 | 38891 ft | 542 kts | 135° |
| 2026-05-07 11:28 | 34.70888 | 9.42362 | 38891 ft | 542 kts | 135° |
| 2026-05-07 11:29 | 34.66422 | 9.49731 | 38890 ft | 542 kts | 134° |
| 2026-05-07 11:29 | 34.61950 | 9.57095 | 38892 ft | 541 kts | 134° |
| 2026-05-07 11:30 | 34.57478 | 9.64443 | 38891 ft | 541 kts | 134° |
| 2026-05-07 11:30 | 34.52993 | 9.71797 | 38894 ft | 541 kts | 135° |
| 2026-05-07 11:31 | 34.48507 | 9.79136 | 38888 ft | 541 kts | 134° |
| 2026-05-07 11:31 | 34.44053 | 9.86410 | 38895 ft | 540 kts | 134° |
| 2026-05-07 11:32 | 34.37318 | 9.97380 | 38896 ft | 541 kts | 134° |
| 2026-05-07 11:33 | 34.32822 | 10.04684 | 38897 ft | 541 kts | 134° |
| 2026-05-07 11:33 | 34.28326 | 10.11974 | 38902 ft | 541 kts | 134° |
| 2026-05-07 11:34 | 34.23815 | 10.19274 | 38904 ft | 542 kts | 134° |
| 2026-05-07 11:34 | 34.19300 | 10.26565 | 38908 ft | 542 kts | 134° |
| 2026-05-07 11:35 | 34.14773 | 10.33862 | 38911 ft | 543 kts | 134° |
| 2026-05-07 11:35 | 34.11003 | 10.39927 | 38906 ft | 543 kts | 134° |
| 2026-05-07 11:36 | 34.06457 | 10.47225 | 38905 ft | 544 kts | 134° |
| 2026-05-07 11:36 | 34.01904 | 10.54520 | 38923 ft | 546 kts | 134° |
| 2026-05-07 11:37 | 33.97333 | 10.61830 | 38912 ft | 547 kts | 134° |
| 2026-05-07 11:37 | 33.92741 | 10.69158 | 38910 ft | 548 kts | 134° |
| 2026-05-07 11:38 | 33.88148 | 10.76485 | 38909 ft | 550 kts | 132° |
| 2026-05-07 11:38 | 33.83979 | 10.84296 | 38905 ft | 556 kts | 128° |
| 2026-05-07 11:39 | 33.79871 | 10.92187 | 38915 ft | 557 kts | 128° |
| 2026-05-07 11:39 | 33.75743 | 11.00074 | 38911 ft | 557 kts | 128° |
| 2026-05-07 11:40 | 33.71609 | 11.07949 | 38918 ft | 557 kts | 128° |
| 2026-05-07 11:40 | 33.67470 | 11.15815 | 38919 ft | 558 kts | 128° |
| 2026-05-07 11:41 | 33.63350 | 11.23632 | 38917 ft | 557 kts | 128° |
| 2026-05-07 11:41 | 33.59193 | 11.31500 | 38921 ft | 558 kts | 127° |
| 2026-05-07 11:42 | 33.55036 | 11.39352 | 38919 ft | 558 kts | 127° |
| 2026-05-07 11:42 | 33.50874 | 11.47214 | 38916 ft | 559 kts | 126° |
| 2026-05-07 11:43 | 33.47488 | 11.55655 | 38916 ft | 566 kts | 114° |
| 2026-05-07 11:43 | 33.44620 | 11.64447 | 38922 ft | 566 kts | 115° |
| 2026-05-07 11:44 | 33.41720 | 11.73212 | 38911 ft | 566 kts | 115° |
| 2026-05-07 11:44 | 33.38835 | 11.81898 | 38916 ft | 565 kts | 115° |
| 2026-05-07 11:45 | 33.35927 | 11.90631 | 38915 ft | 565 kts | 115° |
| 2026-05-07 11:45 | 33.33017 | 11.99348 | 38910 ft | 564 kts | 115° |
| 2026-05-07 11:46 | 33.30102 | 12.08058 | 38910 ft | 563 kts | 114° |
| 2026-05-07 11:46 | 33.27969 | 12.17095 | 38915 ft | 568 kts | 101° |
| 2026-05-07 11:47 | 33.26974 | 12.26460 | 38913 ft | 569 kts | 98° |
| 2026-05-07 11:47 | 33.25998 | 12.35848 | 38907 ft | 569 kts | 98° |
| 2026-05-07 11:48 | 33.25008 | 12.45232 | 38906 ft | 570 kts | 98° |
| 2026-05-07 11:48 | 33.24012 | 12.54623 | 38907 ft | 570 kts | 98° |
| 2026-05-07 11:49 | 33.23010 | 12.64006 | 38906 ft | 570 kts | 98° |
| 2026-05-07 11:49 | 33.22002 | 12.73382 | 38906 ft | 569 kts | 97° |
| 2026-05-07 11:50 | 33.20987 | 12.82755 | 38902 ft | 568 kts | 97° |
| 2026-05-07 11:50 | 33.19967 | 12.92105 | 38903 ft | 568 kts | 97° |
| 2026-05-07 11:51 | 33.18948 | 13.01382 | 38905 ft | 567 kts | 97° |
| 2026-05-07 11:51 | 33.17916 | 13.10711 | 38911 ft | 566 kts | 97° |
| 2026-05-07 11:52 | 33.16879 | 13.20020 | 38922 ft | 566 kts | 97° |
| 2026-05-07 11:52 | 33.15835 | 13.29327 | 38922 ft | 565 kts | 97° |
| 2026-05-07 11:53 | 33.14785 | 13.38621 | 38922 ft | 564 kts | 98° |
| 2026-05-07 11:53 | 33.13658 | 13.47886 | 38915 ft | 564 kts | 98° |
| 2026-05-07 11:54 | 33.12514 | 13.57131 | 38903 ft | 564 kts | 98° |
| 2026-05-07 11:54 | 33.11372 | 13.66379 | 38898 ft | 563 kts | 98° |
| 2026-05-07 11:55 | 33.10233 | 13.75566 | 38895 ft | 564 kts | 98° |
| 2026-05-07 11:55 | 33.09082 | 13.84798 | 38899 ft | 563 kts | 98° |
| 2026-05-07 11:56 | 33.07923 | 13.94027 | 38899 ft | 563 kts | 98° |
| 2026-05-07 11:56 | 33.06757 | 14.03268 | 38897 ft | 563 kts | 98° |
| 2026-05-07 11:57 | 33.05584 | 14.12497 | 38897 ft | 563 kts | 98° |
| 2026-05-07 11:57 | 33.04406 | 14.21715 | 38899 ft | 562 kts | 98° |
| 2026-05-07 11:58 | 33.03223 | 14.30916 | 38901 ft | 561 kts | 98° |
| 2026-05-07 11:58 | 33.02035 | 14.40104 | 38902 ft | 561 kts | 98° |
| 2026-05-07 11:59 | 33.00841 | 14.49280 | 38905 ft | 560 kts | 98° |
| 2026-05-07 11:59 | 32.99643 | 14.58431 | 38909 ft | 559 kts | 98° |
| 2026-05-07 12:00 | 32.98439 | 14.67579 | 38915 ft | 559 kts | 98° |
| 2026-05-07 12:00 | 32.97228 | 14.76727 | 38912 ft | 559 kts | 98° |
| 2026-05-07 12:01 | 32.96009 | 14.85880 | 38917 ft | 560 kts | 98° |
| 2026-05-07 12:01 | 32.94786 | 14.95027 | 38925 ft | 559 kts | 98° |
| 2026-05-07 12:02 | 32.93607 | 15.04116 | 38925 ft | 559 kts | 98° |
| 2026-05-07 12:02 | 32.92432 | 15.13245 | 38922 ft | 559 kts | 98° |
| 2026-05-07 12:03 | 32.91242 | 15.22385 | 38928 ft | 558 kts | 98° |
| 2026-05-07 12:03 | 32.90043 | 15.31514 | 38929 ft | 558 kts | 98° |
| 2026-05-07 12:04 | 32.88840 | 15.40622 | 38933 ft | 558 kts | 98° |
| 2026-05-07 12:04 | 32.87628 | 15.49747 | 38933 ft | 558 kts | 98° |
| 2026-05-07 12:05 | 32.86411 | 15.58858 | 38937 ft | 558 kts | 98° |
| 2026-05-07 12:05 | 32.85188 | 15.67960 | 38940 ft | 557 kts | 98° |
| 2026-05-07 12:06 | 32.83959 | 15.77056 | 38938 ft | 557 kts | 98° |
| 2026-05-07 12:06 | 32.83079 | 15.86199 | 38937 ft | 556 kts | 94° |
| 2026-05-07 12:07 | 32.82371 | 15.95351 | 38936 ft | 556 kts | 94° |
| 2026-05-07 12:07 | 32.81607 | 16.04472 | 38937 ft | 556 kts | 94° |
| 2026-05-07 12:08 | 32.80819 | 16.13544 | 38939 ft | 555 kts | 94° |
| 2026-05-07 12:08 | 32.80010 | 16.22756 | 38935 ft | 556 kts | 94° |
| 2026-05-07 12:09 | 32.79204 | 16.31841 | 38934 ft | 558 kts | 94° |
| 2026-05-07 12:09 | 32.78380 | 16.41010 | 38939 ft | 558 kts | 94° |
| 2026-05-07 12:10 | 32.77546 | 16.50198 | 38942 ft | 559 kts | 94° |
| 2026-05-07 12:10 | 32.76707 | 16.59371 | 38944 ft | 559 kts | 94° |
| 2026-05-07 12:11 | 32.75859 | 16.68555 | 38947 ft | 558 kts | 94° |
| 2026-05-07 12:11 | 32.75007 | 16.77723 | 38947 ft | 558 kts | 94° |
| 2026-05-07 12:12 | 32.74150 | 16.86866 | 38947 ft | 557 kts | 94° |
| 2026-05-07 12:12 | 32.73285 | 16.96012 | 38948 ft | 557 kts | 94° |
| 2026-05-07 12:13 | 32.72416 | 17.05139 | 38948 ft | 557 kts | 94° |
| 2026-05-07 12:13 | 32.71540 | 17.14270 | 38955 ft | 556 kts | 94° |
| 2026-05-07 12:14 | 32.70657 | 17.23399 | 38953 ft | 556 kts | 94° |
| 2026-05-07 12:14 | 32.69775 | 17.32446 | 38951 ft | 556 kts | 94° |
| 2026-05-07 12:15 | 32.68880 | 17.41558 | 38956 ft | 555 kts | 94° |
| 2026-05-07 12:15 | 32.67980 | 17.50658 | 38957 ft | 555 kts | 94° |
| 2026-05-07 12:16 | 32.67072 | 17.59765 | 38959 ft | 555 kts | 94° |
| 2026-05-07 12:16 | 32.66158 | 17.68861 | 38967 ft | 555 kts | 94° |
| 2026-05-07 12:17 | 32.65239 | 17.77951 | 38971 ft | 555 kts | 94° |
| 2026-05-07 12:17 | 32.64312 | 17.87044 | 38974 ft | 555 kts | 94° |
| 2026-05-07 12:18 | 32.63379 | 17.96134 | 38979 ft | 555 kts | 94° |
| 2026-05-07 12:18 | 32.62440 | 18.05220 | 38979 ft | 555 kts | 94° |
| 2026-05-07 12:19 | 32.61493 | 18.14305 | 38983 ft | 555 kts | 94° |
| 2026-05-07 12:19 | 32.60548 | 18.23323 | 38987 ft | 555 kts | 94° |
| 2026-05-07 12:20 | 32.59589 | 18.32400 | 38995 ft | 554 kts | 94° |
| 2026-05-07 12:20 | 32.58625 | 18.41465 | 38995 ft | 554 kts | 94° |
| 2026-05-07 12:21 | 32.57654 | 18.50527 | 39002 ft | 554 kts | 94° |
| 2026-05-07 12:21 | 32.56677 | 18.59587 | 39008 ft | 553 kts | 94° |
| 2026-05-07 12:22 | 32.55696 | 18.68621 | 39009 ft | 553 kts | 94° |
| 2026-05-07 12:22 | 32.54709 | 18.77648 | 39016 ft | 553 kts | 94° |
| 2026-05-07 12:23 | 32.53716 | 18.86671 | 39011 ft | 552 kts | 94° |
| 2026-05-07 12:23 | 32.52718 | 18.95682 | 39019 ft | 551 kts | 94° |
| 2026-05-07 12:24 | 32.51713 | 19.04693 | 39019 ft | 551 kts | 94° |
| 2026-05-07 12:24 | 32.50703 | 19.13687 | 39022 ft | 551 kts | 94° |
| 2026-05-07 12:25 | 32.49687 | 19.22675 | 39021 ft | 550 kts | 94° |
| 2026-05-07 12:25 | 32.48665 | 19.31663 | 39024 ft | 550 kts | 94° |
| 2026-05-07 12:26 | 32.47645 | 19.40570 | 39021 ft | 550 kts | 94° |
| 2026-05-07 12:26 | 32.46612 | 19.49540 | 39026 ft | 549 kts | 94° |
| 2026-05-07 12:27 | 32.45574 | 19.58492 | 39027 ft | 549 kts | 94° |
| 2026-05-07 12:27 | 32.44529 | 19.67447 | 39031 ft | 549 kts | 94° |
| 2026-05-07 12:28 | 32.43477 | 19.76406 | 39030 ft | 549 kts | 94° |
| 2026-05-07 12:28 | 32.42419 | 19.85361 | 39027 ft | 550 kts | 94° |
| 2026-05-07 12:29 | 32.41356 | 19.94305 | 39028 ft | 549 kts | 94° |
| 2026-05-07 12:29 | 32.40283 | 20.03273 | 39029 ft | 550 kts | 94° |
| 2026-05-07 12:30 | 32.39205 | 20.12227 | 39029 ft | 550 kts | 94° |
| 2026-05-07 12:30 | 32.38306 | 20.19660 | 39033 ft | 549 kts | 94° |
| 2026-05-07 12:31 | 32.37034 | 20.30107 | 39031 ft | 549 kts | 94° |
| 2026-05-07 12:31 | 32.36122 | 20.37554 | 39038 ft | 549 kts | 94° |
| 2026-05-07 12:32 | 32.35021 | 20.46491 | 39039 ft | 549 kts | 94° |
| 2026-05-07 12:32 | 32.33915 | 20.55417 | 39047 ft | 549 kts | 94° |
| 2026-05-07 12:33 | 32.32242 | 20.68813 | 39058 ft | 549 kts | 94° |
| 2026-05-07 12:33 | 32.31121 | 20.77732 | 39064 ft | 549 kts | 94° |
| 2026-05-07 12:34 | 32.29994 | 20.86648 | 39070 ft | 549 kts | 94° |
| 2026-05-07 12:34 | 32.28859 | 20.95565 | 39080 ft | 549 kts | 94° |
| 2026-05-07 12:35 | 32.27718 | 21.04488 | 39080 ft | 549 kts | 94° |
| 2026-05-07 12:35 | 32.26570 | 21.13405 | 39084 ft | 549 kts | 94° |
| 2026-05-07 12:36 | 32.25414 | 21.22329 | 39093 ft | 550 kts | 94° |
| 2026-05-07 12:36 | 32.24253 | 21.31253 | 39091 ft | 550 kts | 94° |
| 2026-05-07 12:37 | 32.23084 | 21.40185 | 39100 ft | 550 kts | 94° |
| 2026-05-07 12:37 | 32.21907 | 21.49126 | 39095 ft | 550 kts | 94° |
| 2026-05-07 12:38 | 32.20726 | 21.58050 | 39096 ft | 550 kts | 94° |
| 2026-05-07 12:38 | 32.19547 | 21.66904 | 39104 ft | 550 kts | 94° |
| 2026-05-07 12:39 | 32.18353 | 21.75829 | 39098 ft | 550 kts | 94° |
| 2026-05-07 12:39 | 32.17153 | 21.84743 | 39100 ft | 550 kts | 94° |
| 2026-05-07 12:40 | 32.15948 | 21.93654 | 39100 ft | 550 kts | 94° |
| 2026-05-07 12:40 | 32.14736 | 22.02560 | 39100 ft | 550 kts | 94° |
| 2026-05-07 12:41 | 32.13517 | 22.11473 | 39100 ft | 550 kts | 94° |
| 2026-05-07 12:41 | 32.12293 | 22.20370 | 39096 ft | 550 kts | 94° |
| 2026-05-07 12:42 | 32.11063 | 22.29272 | 39105 ft | 550 kts | 94° |
| 2026-05-07 12:42 | 32.09825 | 22.38175 | 39108 ft | 551 kts | 94° |
| 2026-05-07 12:43 | 32.08579 | 22.47092 | 39109 ft | 551 kts | 94° |
| 2026-05-07 12:43 | 32.07326 | 22.56011 | 39102 ft | 551 kts | 94° |
| 2026-05-07 12:44 | 32.06068 | 22.64923 | 39100 ft | 551 kts | 94° |
| 2026-05-07 12:44 | 32.04802 | 22.73841 | 39102 ft | 551 kts | 94° |
| 2026-05-07 12:45 | 32.03531 | 22.82746 | 39096 ft | 552 kts | 94° |
| 2026-05-07 12:45 | 32.02260 | 22.91606 | 39098 ft | 552 kts | 94° |
| 2026-05-07 12:46 | 32.00977 | 23.00508 | 39101 ft | 552 kts | 94° |
| 2026-05-07 12:46 | 31.99685 | 23.09425 | 39095 ft | 552 kts | 94° |
| 2026-05-07 12:47 | 31.98386 | 23.18343 | 39104 ft | 553 kts | 94° |
| 2026-05-07 12:47 | 31.97081 | 23.27262 | 39100 ft | 553 kts | 94° |
| 2026-05-07 12:48 | 31.95769 | 23.36179 | 39106 ft | 553 kts | 94° |
| 2026-05-07 12:48 | 31.94450 | 23.45098 | 39104 ft | 553 kts | 94° |
| 2026-05-07 12:49 | 31.93123 | 23.54021 | 39105 ft | 553 kts | 94° |
| 2026-05-07 12:49 | 31.91796 | 23.62912 | 39106 ft | 553 kts | 94° |
| 2026-05-07 12:50 | 31.90456 | 23.71842 | 39108 ft | 553 kts | 94° |
| 2026-05-07 12:50 | 31.89113 | 23.80742 | 39112 ft | 553 kts | 94° |
| 2026-05-07 12:51 | 31.87765 | 23.89636 | 39114 ft | 552 kts | 94° |
| 2026-05-07 12:51 | 31.86408 | 23.98542 | 39112 ft | 552 kts | 94° |
| 2026-05-07 12:52 | 31.85049 | 24.07426 | 39117 ft | 552 kts | 94° |
| 2026-05-07 12:52 | 31.83683 | 24.16304 | 39118 ft | 552 kts | 94° |
| 2026-05-07 12:53 | 31.82311 | 24.25184 | 39121 ft | 552 kts | 94° |
| 2026-05-07 12:53 | 31.80942 | 24.34002 | 39116 ft | 552 kts | 94° |
| 2026-05-07 12:54 | 31.79559 | 24.42865 | 39128 ft | 552 kts | 94° |
| 2026-05-07 12:54 | 31.78170 | 24.51729 | 39123 ft | 551 kts | 94° |
| 2026-05-07 12:55 | 31.76774 | 24.60589 | 39130 ft | 552 kts | 94° |
| 2026-05-07 12:55 | 31.75371 | 24.69460 | 39135 ft | 552 kts | 94° |
| 2026-05-07 12:56 | 31.73964 | 24.78325 | 39136 ft | 552 kts | 94° |
| 2026-05-07 12:56 | 31.72553 | 24.87196 | 39134 ft | 553 kts | 94° |
| 2026-05-07 12:57 | 31.71135 | 24.96070 | 39142 ft | 553 kts | 94° |
| 2026-05-07 12:57 | 31.69710 | 25.04951 | 39143 ft | 553 kts | 94° |
| 2026-05-07 12:58 | 31.68281 | 25.13817 | 39135 ft | 553 kts | 94° |
| 2026-05-07 12:58 | 31.67121 | 25.22711 | 39144 ft | 550 kts | 90° |
| 2026-05-07 12:59 | 31.66105 | 25.31609 | 39144 ft | 550 kts | 90° |
| 2026-05-07 12:59 | 31.65042 | 25.40494 | 39138 ft | 551 kts | 91° |
| 2026-05-07 13:00 | 31.63952 | 25.49396 | 39142 ft | 551 kts | 91° |
| 2026-05-07 13:00 | 31.62854 | 25.58296 | 39139 ft | 551 kts | 91° |
| 2026-05-07 13:01 | 31.61750 | 25.67193 | 39140 ft | 552 kts | 91° |
| 2026-05-07 13:01 | 31.60640 | 25.76090 | 39142 ft | 551 kts | 91° |
| 2026-05-07 13:02 | 31.59531 | 25.84924 | 39141 ft | 551 kts | 91° |
| 2026-05-07 13:02 | 31.58409 | 25.93808 | 39145 ft | 551 kts | 91° |
| 2026-05-07 13:03 | 31.57137 | 26.02681 | 39146 ft | 556 kts | 97° |
| 2026-05-07 13:03 | 31.55297 | 26.11499 | 39153 ft | 556 kts | 97° |
| 2026-05-07 13:04 | 31.53483 | 26.20317 | 39154 ft | 556 kts | 97° |
| 2026-05-07 13:04 | 31.51661 | 26.29130 | 39158 ft | 556 kts | 97° |
| 2026-05-07 13:05 | 31.49828 | 26.37953 | 39160 ft | 557 kts | 97° |
| 2026-05-07 13:05 | 31.47992 | 26.46754 | 39161 ft | 556 kts | 97° |
| 2026-05-07 13:06 | 31.46149 | 26.55556 | 39167 ft | 556 kts | 97° |
| 2026-05-07 13:06 | 31.44302 | 26.64349 | 39169 ft | 556 kts | 97° |
| 2026-05-07 13:07 | 31.42449 | 26.73136 | 39167 ft | 556 kts | 97° |
| 2026-05-07 13:07 | 31.40588 | 26.81924 | 39173 ft | 556 kts | 97° |
| 2026-05-07 13:08 | 31.38723 | 26.90708 | 39181 ft | 556 kts | 97° |
| 2026-05-07 13:08 | 31.36849 | 26.99495 | 39185 ft | 556 kts | 97° |
| 2026-05-07 13:09 | 31.34970 | 27.08278 | 39186 ft | 557 kts | 97° |
| 2026-05-07 13:09 | 31.33008 | 27.17036 | 39185 ft | 560 kts | 101° |
| 2026-05-07 13:10 | 31.29899 | 27.25487 | 39185 ft | 572 kts | 114° |
| 2026-05-07 13:10 | 31.25546 | 27.33322 | 39181 ft | 576 kts | 120° |
| 2026-05-07 13:11 | 31.21050 | 27.41070 | 39180 ft | 575 kts | 120° |
| 2026-05-07 13:11 | 31.16560 | 27.48812 | 39175 ft | 575 kts | 120° |
| 2026-05-07 13:12 | 31.12066 | 27.56528 | 39168 ft | 575 kts | 120° |
| 2026-05-07 13:12 | 31.07496 | 27.64183 | 39166 ft | 575 kts | 121° |
| 2026-05-07 13:13 | 31.02920 | 27.71822 | 39163 ft | 575 kts | 121° |
| 2026-05-07 13:13 | 30.98345 | 27.79462 | 39154 ft | 574 kts | 120° |
| 2026-05-07 13:14 | 30.93804 | 27.87036 | 39152 ft | 574 kts | 120° |
| 2026-05-07 13:14 | 30.89233 | 27.94647 | 39149 ft | 573 kts | 120° |
| 2026-05-07 13:15 | 30.84657 | 28.02250 | 39142 ft | 574 kts | 120° |
| 2026-05-07 13:15 | 30.80081 | 28.09838 | 39139 ft | 573 kts | 120° |
| 2026-05-07 13:16 | 30.75501 | 28.17419 | 39142 ft | 572 kts | 121° |
| 2026-05-07 13:16 | 30.70928 | 28.24973 | 39138 ft | 571 kts | 121° |
| 2026-05-07 13:17 | 30.66361 | 28.32504 | 39134 ft | 569 kts | 121° |
| 2026-05-07 13:17 | 30.61793 | 28.40021 | 39126 ft | 569 kts | 121° |
| 2026-05-07 13:18 | 30.57236 | 28.47508 | 39117 ft | 567 kts | 121° |
| 2026-05-07 13:18 | 30.52684 | 28.54971 | 39115 ft | 566 kts | 121° |
| 2026-05-07 13:19 | 30.48138 | 28.62411 | 39107 ft | 565 kts | 121° |
| 2026-05-07 13:19 | 30.44358 | 28.68586 | 39102 ft | 564 kts | 121° |
| 2026-05-07 13:20 | 30.39083 | 28.77187 | 39097 ft | 562 kts | 121° |
| 2026-05-07 13:20 | 30.35286 | 28.83368 | 39094 ft | 561 kts | 121° |
| 2026-05-07 13:21 | 30.30765 | 28.90715 | 39090 ft | 560 kts | 121° |
| 2026-05-07 13:21 | 30.26244 | 28.98049 | 39087 ft | 559 kts | 121° |
| 2026-05-07 13:22 | 30.21729 | 29.05360 | 39086 ft | 558 kts | 121° |
| 2026-05-07 13:22 | 30.17247 | 29.12610 | 39085 ft | 557 kts | 121° |
| 2026-05-07 13:23 | 30.12723 | 29.19943 | 39078 ft | 556 kts | 121° |
| 2026-05-07 13:23 | 30.08286 | 29.27247 | 39078 ft | 555 kts | 121° |
| 2026-05-07 13:24 | 30.03918 | 29.34515 | 39074 ft | 555 kts | 121° |
| 2026-05-07 13:24 | 29.99486 | 29.41852 | 39071 ft | 554 kts | 121° |
| 2026-05-07 13:25 | 29.95112 | 29.49068 | 39071 ft | 553 kts | 121° |
| 2026-05-07 13:25 | 29.90702 | 29.56329 | 39076 ft | 552 kts | 121° |
| 2026-05-07 13:26 | 29.86295 | 29.63571 | 39075 ft | 551 kts | 121° |
| 2026-05-07 13:26 | 29.81885 | 29.70806 | 39072 ft | 551 kts | 121° |
| 2026-05-07 13:27 | 29.77478 | 29.78023 | 39077 ft | 551 kts | 121° |
| 2026-05-07 13:27 | 29.73079 | 29.85214 | 39073 ft | 550 kts | 121° |
| 2026-05-07 13:28 | 29.68671 | 29.92408 | 39071 ft | 549 kts | 121° |
| 2026-05-07 13:28 | 29.64270 | 29.99578 | 39070 ft | 549 kts | 121° |
| 2026-05-07 13:29 | 29.59859 | 30.06750 | 39069 ft | 549 kts | 121° |
| 2026-05-07 13:29 | 29.55450 | 30.13909 | 39064 ft | 548 kts | 122° |
| 2026-05-07 13:30 | 29.51050 | 30.21039 | 39057 ft | 548 kts | 122° |
| 2026-05-07 13:30 | 29.46640 | 30.28172 | 39060 ft | 548 kts | 122° |
| 2026-05-07 13:31 | 29.42226 | 30.35301 | 39060 ft | 547 kts | 122° |
| 2026-05-07 13:31 | 29.37450 | 30.42097 | 39057 ft | 550 kts | 132° |
| 2026-05-07 13:32 | 29.32122 | 30.48402 | 39056 ft | 550 kts | 132° |
| 2026-05-07 13:32 | 29.26830 | 30.54715 | 39059 ft | 549 kts | 132° |
| 2026-05-07 13:33 | 29.21535 | 30.61023 | 39062 ft | 549 kts | 132° |
| 2026-05-07 13:33 | 29.16241 | 30.67315 | 39060 ft | 549 kts | 132° |
| 2026-05-07 13:34 | 29.08332 | 30.76696 | 39058 ft | 548 kts | 133° |
| 2026-05-07 13:35 | 29.03042 | 30.82959 | 39058 ft | 548 kts | 133° |
| 2026-05-07 13:35 | 28.97757 | 30.89207 | 39057 ft | 547 kts | 133° |
| 2026-05-07 13:36 | 28.92463 | 30.95455 | 39059 ft | 547 kts | 133° |
| 2026-05-07 13:36 | 28.87174 | 31.01687 | 39063 ft | 546 kts | 134° |
| 2026-05-07 13:37 | 28.81881 | 31.07914 | 39065 ft | 546 kts | 134° |
| 2026-05-07 13:37 | 28.76600 | 31.14118 | 39060 ft | 545 kts | 134° |
| 2026-05-07 13:38 | 28.71311 | 31.20321 | 39055 ft | 545 kts | 134° |
| 2026-05-07 13:38 | 28.66119 | 31.26608 | 39054 ft | 544 kts | 131° |
| 2026-05-07 13:39 | 28.61084 | 31.33049 | 39054 ft | 544 kts | 131° |
| 2026-05-07 13:39 | 28.56032 | 31.39448 | 39053 ft | 543 kts | 132° |
| 2026-05-07 13:40 | 28.50995 | 31.45780 | 39051 ft | 543 kts | 132° |
| 2026-05-07 13:40 | 28.45922 | 31.52139 | 39047 ft | 542 kts | 132° |
| 2026-05-07 13:41 | 28.40851 | 31.58488 | 39045 ft | 542 kts | 133° |
| 2026-05-07 13:41 | 28.35785 | 31.64820 | 39042 ft | 542 kts | 133° |
| 2026-05-07 13:42 | 28.30712 | 31.71152 | 39038 ft | 541 kts | 133° |
| 2026-05-07 13:42 | 28.25645 | 31.77467 | 39040 ft | 541 kts | 133° |
| 2026-05-07 13:43 | 28.20572 | 31.83779 | 39034 ft | 541 kts | 133° |
| 2026-05-07 13:43 | 28.15507 | 31.90071 | 39032 ft | 541 kts | 133° |
| 2026-05-07 13:44 | 28.10431 | 31.96368 | 39028 ft | 541 kts | 133° |
| 2026-05-07 13:44 | 28.05389 | 32.02679 | 39024 ft | 541 kts | 130° |
| 2026-05-07 13:45 | 28.01125 | 32.09679 | 39013 ft | 541 kts | 119° |
| 2026-05-07 13:45 | 27.97552 | 32.17175 | 38999 ft | 541 kts | 118° |
| 2026-05-07 13:46 | 27.93958 | 32.24637 | 38988 ft | 541 kts | 118° |
| 2026-05-07 13:46 | 27.90351 | 32.32101 | 38973 ft | 540 kts | 119° |
| 2026-05-07 13:47 | 27.86746 | 32.39550 | 38962 ft | 541 kts | 119° |
| 2026-05-07 13:47 | 27.83139 | 32.46994 | 38960 ft | 540 kts | 119° |
| 2026-05-07 13:48 | 27.79524 | 32.54438 | 38954 ft | 540 kts | 119° |
| 2026-05-07 13:48 | 27.75935 | 32.61817 | 38953 ft | 539 kts | 119° |
| 2026-05-07 13:49 | 27.72316 | 32.69246 | 38949 ft | 540 kts | 119° |
| 2026-05-07 13:49 | 27.68696 | 32.76661 | 38947 ft | 540 kts | 120° |
| 2026-05-07 13:50 | 27.65072 | 32.84073 | 38948 ft | 539 kts | 120° |
| 2026-05-07 13:50 | 27.61450 | 32.91468 | 38944 ft | 539 kts | 120° |
| 2026-05-07 13:51 | 27.57822 | 32.98861 | 38941 ft | 539 kts | 120° |
| 2026-05-07 13:51 | 27.54194 | 33.06242 | 38936 ft | 539 kts | 120° |
| 2026-05-07 13:52 | 27.50559 | 33.13625 | 38934 ft | 538 kts | 120° |
| 2026-05-07 13:52 | 27.46925 | 33.20992 | 38936 ft | 537 kts | 120° |
| 2026-05-07 13:53 | 27.43289 | 33.28351 | 38934 ft | 538 kts | 120° |
| 2026-05-07 13:53 | 27.39655 | 33.35694 | 38932 ft | 538 kts | 121° |
| 2026-05-07 13:54 | 27.36010 | 33.43048 | 38929 ft | 537 kts | 121° |
| 2026-05-07 13:54 | 27.32366 | 33.50382 | 38932 ft | 538 kts | 121° |
| 2026-05-07 13:55 | 27.28715 | 33.57718 | 38935 ft | 538 kts | 121° |
| 2026-05-07 13:55 | 27.25064 | 33.65044 | 38934 ft | 537 kts | 121° |
| 2026-05-07 13:56 | 27.21408 | 33.72367 | 38941 ft | 537 kts | 121° |
| 2026-05-07 13:56 | 27.17819 | 33.79723 | 38937 ft | 538 kts | 117° |
| 2026-05-07 13:57 | 27.14971 | 33.87518 | 38939 ft | 540 kts | 113° |
| 2026-05-07 13:57 | 27.12198 | 33.95346 | 38934 ft | 539 kts | 114° |
| 2026-05-07 13:58 | 27.09409 | 34.03170 | 38926 ft | 539 kts | 114° |
| 2026-05-07 13:58 | 27.06625 | 34.10966 | 38912 ft | 539 kts | 114° |
| 2026-05-07 13:59 | 27.03829 | 34.18784 | 38903 ft | 539 kts | 114° |
| 2026-05-07 13:59 | 27.01032 | 34.26588 | 38904 ft | 539 kts | 114° |
| 2026-05-07 14:00 | 26.98248 | 34.34337 | 38900 ft | 539 kts | 115° |
| 2026-05-07 14:00 | 26.95425 | 34.42178 | 38892 ft | 539 kts | 115° |
| 2026-05-07 14:01 | 26.92636 | 34.49909 | 38894 ft | 538 kts | 115° |
| 2026-05-07 14:01 | 26.89831 | 34.57672 | 38896 ft | 538 kts | 115° |
| 2026-05-07 14:02 | 26.87018 | 34.65438 | 38888 ft | 538 kts | 115° |
| 2026-05-07 14:02 | 26.84200 | 34.73202 | 38886 ft | 538 kts | 115° |
| 2026-05-07 14:03 | 26.81384 | 34.80947 | 38884 ft | 537 kts | 116° |
| 2026-05-07 14:03 | 26.78561 | 34.88697 | 38878 ft | 537 kts | 116° |
| 2026-05-07 14:04 | 26.75737 | 34.96434 | 38880 ft | 537 kts | 116° |
| 2026-05-07 14:04 | 26.72909 | 35.04172 | 38877 ft | 537 kts | 116° |
| 2026-05-07 14:05 | 26.70079 | 35.11902 | 38880 ft | 537 kts | 116° |
| 2026-05-07 14:05 | 26.67242 | 35.19634 | 38877 ft | 537 kts | 116° |
| 2026-05-07 14:06 | 26.64402 | 35.27362 | 38876 ft | 537 kts | 117° |
| 2026-05-07 14:06 | 26.61560 | 35.35078 | 38879 ft | 537 kts | 117° |
| 2026-05-07 14:07 | 26.58712 | 35.42794 | 38881 ft | 537 kts | 117° |
| 2026-05-07 14:07 | 26.55861 | 35.50493 | 38874 ft | 536 kts | 117° |
| 2026-05-07 14:08 | 26.52936 | 35.58155 | 38877 ft | 536 kts | 118° |
| 2026-05-07 14:08 | 26.49998 | 35.65813 | 38880 ft | 536 kts | 118° |
| 2026-05-07 14:09 | 26.47563 | 35.72167 | 38880 ft | 536 kts | 118° |
| 2026-05-07 14:09 | 26.44137 | 35.81104 | 38875 ft | 535 kts | 118° |
| 2026-05-07 14:10 | 26.41700 | 35.87448 | 38894 ft | 536 kts | 118° |
| 2026-05-07 14:10 | 26.38761 | 35.95086 | 38886 ft | 535 kts | 119° |
| 2026-05-07 14:11 | 26.35824 | 36.02705 | 38881 ft | 535 kts | 119° |
| 2026-05-07 14:11 | 26.32881 | 36.10325 | 38884 ft | 534 kts | 119° |
| 2026-05-07 14:12 | 26.29937 | 36.17931 | 38882 ft | 534 kts | 119° |
| 2026-05-07 14:12 | 26.26992 | 36.25527 | 38876 ft | 534 kts | 120° |
| 2026-05-07 14:13 | 26.24041 | 36.33125 | 38878 ft | 534 kts | 120° |
| 2026-05-07 14:13 | 26.21090 | 36.40707 | 38883 ft | 534 kts | 120° |
| 2026-05-07 14:14 | 26.18117 | 36.48282 | 38881 ft | 532 kts | 122° |
| 2026-05-07 14:14 | 26.14649 | 36.55477 | 38883 ft | 527 kts | 126° |
| 2026-05-07 14:15 | 26.11119 | 36.62641 | 38878 ft | 528 kts | 126° |
| 2026-05-07 14:15 | 26.07617 | 36.69750 | 38877 ft | 528 kts | 126° |
| 2026-05-07 14:16 | 26.04063 | 36.76947 | 38882 ft | 528 kts | 126° |
| 2026-05-07 14:16 | 26.00523 | 36.84100 | 38870 ft | 528 kts | 126° |
| 2026-05-07 14:17 | 25.96979 | 36.91251 | 38869 ft | 528 kts | 127° |
| 2026-05-07 14:17 | 25.93427 | 36.98406 | 38868 ft | 529 kts | 127° |
| 2026-05-07 14:18 | 25.89896 | 37.05509 | 38864 ft | 529 kts | 127° |
| 2026-05-07 14:18 | 25.86336 | 37.12658 | 38861 ft | 530 kts | 127° |
| 2026-05-07 14:19 | 25.82769 | 37.19809 | 38861 ft | 530 kts | 127° |
| 2026-05-07 14:19 | 25.79188 | 37.26980 | 38865 ft | 531 kts | 127° |
| 2026-05-07 14:20 | 25.75619 | 37.34156 | 38870 ft | 532 kts | 127° |
| 2026-05-07 14:20 | 25.72037 | 37.41354 | 38875 ft | 533 kts | 128° |
| 2026-05-07 14:21 | 25.68447 | 37.48549 | 38879 ft | 534 kts | 128° |
| 2026-05-07 14:21 | 25.64850 | 37.55748 | 38879 ft | 533 kts | 128° |
| 2026-05-07 14:22 | 25.61260 | 37.62924 | 38889 ft | 532 kts | 128° |
| 2026-05-07 14:22 | 25.59458 | 37.66509 | 39044 ft | 537 kts | 128° |
| 2026-05-07 14:22 | 25.57626 | 37.70147 | 39069 ft | 538 kts | 128° |
| 2026-05-07 14:23 | 25.54024 | 37.77336 | 39021 ft | 532 kts | 128° |
| 2026-05-07 14:23 | 25.50754 | 37.84771 | 38953 ft | 550 kts | 116° |
| 2026-05-07 14:24 | 25.48716 | 37.93002 | 38893 ft | 554 kts | 113° |
| 2026-05-07 14:24 | 25.46688 | 38.01155 | 38843 ft | 552 kts | 114° |
| 2026-05-07 14:25 | 25.44514 | 38.09287 | 38821 ft | 551 kts | 115° |
| 2026-05-07 14:25 | 25.42310 | 38.17380 | 38825 ft | 550 kts | 115° |
| 2026-05-07 14:26 | 25.40097 | 38.25480 | 38827 ft | 549 kts | 115° |
| 2026-05-07 14:26 | 25.37886 | 38.33555 | 38826 ft | 548 kts | 115° |
| 2026-05-07 14:27 | 25.35674 | 38.41615 | 38829 ft | 547 kts | 115° |
| 2026-05-07 14:27 | 25.33458 | 38.49671 | 38829 ft | 547 kts | 115° |
| 2026-05-07 14:28 | 25.31241 | 38.57709 | 38837 ft | 547 kts | 116° |
| 2026-05-07 14:28 | 25.29016 | 38.65761 | 38839 ft | 547 kts | 116° |
| 2026-05-07 14:29 | 25.26787 | 38.73809 | 38857 ft | 547 kts | 116° |
| 2026-05-07 14:29 | 25.24556 | 38.81842 | 38860 ft | 547 kts | 116° |
| 2026-05-07 14:30 | 25.22337 | 38.89813 | 38871 ft | 546 kts | 116° |
| 2026-05-07 14:30 | 25.20097 | 38.97838 | 38877 ft | 547 kts | 116° |
| 2026-05-07 14:31 | 25.17853 | 39.05867 | 38883 ft | 547 kts | 116° |
| 2026-05-07 14:31 | 25.15606 | 39.13888 | 38888 ft | 547 kts | 116° |
| 2026-05-07 14:32 | 25.13351 | 39.21914 | 38892 ft | 547 kts | 116° |
| 2026-05-07 14:32 | 25.11096 | 39.29922 | 38886 ft | 547 kts | 116° |
| 2026-05-07 14:33 | 25.08838 | 39.37924 | 38894 ft | 546 kts | 117° |
| 2026-05-07 14:33 | 25.06578 | 39.45919 | 38900 ft | 546 kts | 117° |
| 2026-05-07 14:34 | 25.04312 | 39.53913 | 38904 ft | 546 kts | 117° |
| 2026-05-07 14:34 | 25.02060 | 39.61839 | 38907 ft | 545 kts | 117° |
| 2026-05-07 14:35 | 24.99797 | 39.69791 | 38912 ft | 543 kts | 117° |
| 2026-05-07 14:35 | 24.97527 | 39.77743 | 38910 ft | 544 kts | 117° |
| 2026-05-07 14:36 | 24.95255 | 39.85689 | 38911 ft | 543 kts | 118° |
| 2026-05-07 14:36 | 24.92981 | 39.93622 | 38911 ft | 542 kts | 118° |
| 2026-05-07 14:37 | 24.90708 | 40.01535 | 38908 ft | 542 kts | 118° |
| 2026-05-07 14:37 | 24.87293 | 40.13389 | 38897 ft | 541 kts | 118° |
| 2026-05-07 14:38 | 24.85014 | 40.21277 | 38888 ft | 541 kts | 118° |
| 2026-05-07 14:38 | 24.82744 | 40.29116 | 38883 ft | 541 kts | 118° |
| 2026-05-07 14:39 | 24.80460 | 40.36991 | 38879 ft | 539 kts | 119° |
| 2026-05-07 14:39 | 24.78170 | 40.44865 | 38871 ft | 540 kts | 118° |
| 2026-05-07 14:40 | 24.75878 | 40.52732 | 38873 ft | 539 kts | 118° |
| 2026-05-07 14:40 | 24.73585 | 40.60585 | 38871 ft | 539 kts | 118° |
| 2026-05-07 14:41 | 24.71286 | 40.68441 | 38872 ft | 539 kts | 118° |
| 2026-05-07 14:41 | 24.69004 | 40.76228 | 38868 ft | 538 kts | 118° |
| 2026-05-07 14:42 | 24.66706 | 40.84047 | 38873 ft | 537 kts | 118° |
| 2026-05-07 14:42 | 24.64410 | 40.91843 | 38862 ft | 536 kts | 118° |
| 2026-05-07 14:43 | 24.62112 | 40.99629 | 38873 ft | 535 kts | 118° |
| 2026-05-07 14:43 | 24.59817 | 41.07389 | 38865 ft | 533 kts | 118° |
| 2026-05-07 14:44 | 24.57522 | 41.15133 | 38871 ft | 532 kts | 118° |
| 2026-05-07 14:44 | 24.55223 | 41.22870 | 38875 ft | 533 kts | 118° |
| 2026-05-07 14:45 | 24.52920 | 41.30605 | 38881 ft | 533 kts | 118° |
| 2026-05-07 14:45 | 24.50609 | 41.38353 | 38886 ft | 534 kts | 118° |
| 2026-05-07 14:46 | 24.48293 | 41.46103 | 38893 ft | 535 kts | 118° |
| 2026-05-07 14:46 | 24.45969 | 41.53864 | 38899 ft | 535 kts | 118° |
| 2026-05-07 14:47 | 24.43644 | 41.61614 | 38902 ft | 535 kts | 117° |
| 2026-05-07 14:47 | 24.41308 | 41.69383 | 38906 ft | 535 kts | 117° |
| 2026-05-07 14:48 | 24.38984 | 41.77095 | 38910 ft | 536 kts | 117° |
| 2026-05-07 14:48 | 24.36637 | 41.84868 | 38916 ft | 535 kts | 117° |
| 2026-05-07 14:49 | 24.34291 | 41.92621 | 38919 ft | 536 kts | 117° |
| 2026-05-07 14:49 | 24.31941 | 42.00369 | 38921 ft | 536 kts | 117° |
| 2026-05-07 14:50 | 24.29585 | 42.08126 | 38925 ft | 537 kts | 117° |
| 2026-05-07 14:50 | 24.27222 | 42.15888 | 38929 ft | 537 kts | 117° |
| 2026-05-07 14:51 | 24.24852 | 42.23654 | 38927 ft | 538 kts | 117° |
| 2026-05-07 14:51 | 24.22475 | 42.31430 | 38932 ft | 538 kts | 117° |
| 2026-05-07 14:52 | 24.20093 | 42.39210 | 38928 ft | 538 kts | 117° |
| 2026-05-07 14:52 | 24.17723 | 42.46933 | 38935 ft | 538 kts | 117° |
| 2026-05-07 14:53 | 24.15335 | 42.54703 | 38948 ft | 539 kts | 116° |
| 2026-05-07 14:53 | 24.14450 | 42.58740 | 38952 ft | 553 kts | 106° |
| 2026-05-07 14:53 | 24.14018 | 42.62997 | 38950 ft | 558 kts | 102° |
| 2026-05-07 14:54 | 24.13394 | 42.71412 | 38956 ft | 558 kts | 103° |
| 2026-05-07 14:54 | 24.13022 | 42.75644 | 39081 ft | 559 kts | 103° |
| 2026-05-07 14:54 | 24.12615 | 42.79877 | 39499 ft | 557 kts | 103° |
| 2026-05-07 14:55 | 24.12194 | 42.84086 | 39888 ft | 556 kts | 103° |
| 2026-05-07 14:55 | 24.11764 | 42.88287 | 40258 ft | 555 kts | 103° |
| 2026-05-07 14:55 | 24.11333 | 42.92470 | 40632 ft | 554 kts | 103° |
| 2026-05-07 14:55 | 24.10898 | 42.96665 | 40885 ft | 556 kts | 103° |
| 2026-05-07 14:56 | 24.10030 | 43.05030 | 40988 ft | 548 kts | 103° |
| 2026-05-07 14:56 | 24.09160 | 43.13330 | 40992 ft | 550 kts | 103° |
| 2026-05-07 14:57 | 24.08284 | 43.21655 | 40993 ft | 550 kts | 103° |
| 2026-05-07 14:57 | 24.07404 | 43.29973 | 40990 ft | 550 kts | 103° |
| 2026-05-07 14:58 | 24.06523 | 43.38263 | 40991 ft | 549 kts | 103° |
| 2026-05-07 14:58 | 24.05636 | 43.46575 | 40982 ft | 548 kts | 103° |
| 2026-05-07 14:59 | 24.04747 | 43.54846 | 40983 ft | 548 kts | 103° |
| 2026-05-07 14:59 | 24.03860 | 43.63068 | 40981 ft | 547 kts | 103° |
| 2026-05-07 15:00 | 24.02964 | 43.71320 | 40973 ft | 547 kts | 103° |
| 2026-05-07 15:00 | 24.02064 | 43.79573 | 40972 ft | 547 kts | 103° |
| 2026-05-07 15:01 | 24.01158 | 43.87836 | 40959 ft | 547 kts | 103° |
| 2026-05-07 15:01 | 24.00250 | 43.96085 | 40953 ft | 546 kts | 103° |
| 2026-05-07 15:02 | 23.99336 | 44.04335 | 40949 ft | 547 kts | 103° |
| 2026-05-07 15:02 | 23.98574 | 44.11188 | 40946 ft | 547 kts | 103° |
| 2026-05-07 15:03 | 23.97652 | 44.19441 | 40944 ft | 547 kts | 103° |
| 2026-05-07 15:03 | 23.96726 | 44.27693 | 40940 ft | 547 kts | 103° |
| 2026-05-07 15:04 | 23.95796 | 44.35939 | 40942 ft | 546 kts | 103° |
| 2026-05-07 15:04 | 23.94861 | 44.44181 | 40940 ft | 546 kts | 103° |
| 2026-05-07 15:05 | 23.93922 | 44.52426 | 40948 ft | 546 kts | 103° |
| 2026-05-07 15:05 | 23.92978 | 44.60670 | 40944 ft | 547 kts | 103° |
| 2026-05-07 15:06 | 23.92031 | 44.68910 | 40937 ft | 547 kts | 103° |
| 2026-05-07 15:06 | 23.91077 | 44.77164 | 40933 ft | 547 kts | 103° |
| 2026-05-07 15:07 | 23.90119 | 44.85414 | 40936 ft | 548 kts | 103° |
| 2026-05-07 15:07 | 23.89156 | 44.93666 | 40929 ft | 548 kts | 103° |
| 2026-05-07 15:08 | 23.88188 | 45.01928 | 40929 ft | 548 kts | 103° |
| 2026-05-07 15:08 | 23.87221 | 45.10131 | 40925 ft | 548 kts | 103° |
| 2026-05-07 15:09 | 23.86244 | 45.18393 | 40921 ft | 548 kts | 103° |
| 2026-05-07 15:09 | 23.85264 | 45.26642 | 40917 ft | 548 kts | 103° |
| 2026-05-07 15:10 | 23.84277 | 45.34909 | 40914 ft | 548 kts | 103° |
| 2026-05-07 15:10 | 23.83285 | 45.43172 | 40914 ft | 549 kts | 103° |
| 2026-05-07 15:11 | 23.82290 | 45.51426 | 40910 ft | 549 kts | 103° |
| 2026-05-07 15:11 | 23.81290 | 45.59688 | 40903 ft | 549 kts | 103° |
| 2026-05-07 15:12 | 23.80287 | 45.67936 | 40904 ft | 548 kts | 103° |
| 2026-05-07 15:12 | 23.79287 | 45.76125 | 40899 ft | 548 kts | 103° |
| 2026-05-07 15:13 | 23.78267 | 45.84432 | 40897 ft | 548 kts | 103° |
| 2026-05-07 15:13 | 23.77259 | 45.92614 | 40912 ft | 547 kts | 103° |
| 2026-05-07 15:14 | 23.76241 | 46.00838 | 40909 ft | 546 kts | 102° |
| 2026-05-07 15:14 | 23.75219 | 46.09053 | 40912 ft | 546 kts | 103° |
| 2026-05-07 15:15 | 23.74193 | 46.17264 | 40917 ft | 546 kts | 102° |
| 2026-05-07 15:15 | 23.73164 | 46.25467 | 40914 ft | 545 kts | 102° |
| 2026-05-07 15:16 | 23.72132 | 46.33658 | 40920 ft | 545 kts | 102° |
| 2026-05-07 15:16 | 23.71095 | 46.41847 | 40919 ft | 544 kts | 102° |
| 2026-05-07 15:17 | 23.70057 | 46.50018 | 40916 ft | 544 kts | 102° |
| 2026-05-07 15:17 | 23.69016 | 46.58171 | 40914 ft | 543 kts | 102° |
| 2026-05-07 15:18 | 23.67971 | 46.66323 | 40907 ft | 542 kts | 102° |
| 2026-05-07 15:18 | 23.66922 | 46.74472 | 40903 ft | 542 kts | 102° |
| 2026-05-07 15:19 | 23.65873 | 46.82590 | 40895 ft | 541 kts | 102° |
| 2026-05-07 15:19 | 23.64822 | 46.90682 | 40887 ft | 541 kts | 102° |
| 2026-05-07 15:20 | 23.63764 | 46.98801 | 40882 ft | 541 kts | 102° |
| 2026-05-07 15:20 | 23.62701 | 47.06918 | 40876 ft | 540 kts | 102° |
| 2026-05-07 15:21 | 23.61635 | 47.15026 | 40874 ft | 540 kts | 102° |
| 2026-05-07 15:21 | 23.60568 | 47.23115 | 40868 ft | 539 kts | 102° |
| 2026-05-07 15:22 | 23.59495 | 47.31214 | 40870 ft | 539 kts | 102° |
| 2026-05-07 15:22 | 23.58418 | 47.39301 | 40864 ft | 539 kts | 102° |
| 2026-05-07 15:23 | 23.57338 | 47.47386 | 40863 ft | 538 kts | 102° |
| 2026-05-07 15:23 | 23.56256 | 47.55459 | 40860 ft | 539 kts | 102° |
| 2026-05-07 15:24 | 23.55170 | 47.63517 | 40862 ft | 538 kts | 102° |
| 2026-05-07 15:24 | 23.54078 | 47.71596 | 40851 ft | 538 kts | 102° |
| 2026-05-07 15:25 | 23.52984 | 47.79651 | 40848 ft | 537 kts | 102° |
| 2026-05-07 15:25 | 23.51894 | 47.87651 | 40841 ft | 537 kts | 102° |
| 2026-05-07 15:26 | 23.50794 | 47.95692 | 40834 ft | 537 kts | 102° |
| 2026-05-07 15:26 | 23.49690 | 48.03730 | 40831 ft | 536 kts | 102° |
| 2026-05-07 15:27 | 23.48582 | 48.11761 | 40836 ft | 536 kts | 102° |
| 2026-05-07 15:27 | 23.47471 | 48.19787 | 40829 ft | 536 kts | 102° |
| 2026-05-07 15:28 | 23.46365 | 48.27746 | 40821 ft | 535 kts | 102° |
| 2026-05-07 15:28 | 23.45248 | 48.35756 | 40800 ft | 535 kts | 102° |
| 2026-05-07 15:29 | 23.44127 | 48.43763 | 40808 ft | 534 kts | 102° |
| 2026-05-07 15:29 | 23.43004 | 48.51751 | 40807 ft | 534 kts | 102° |
| 2026-05-07 15:30 | 23.41874 | 48.59758 | 40807 ft | 534 kts | 102° |
| 2026-05-07 15:30 | 23.40741 | 48.67759 | 40801 ft | 534 kts | 102° |
| 2026-05-07 15:31 | 23.39607 | 48.75738 | 40799 ft | 534 kts | 102° |
| 2026-05-07 15:31 | 23.38469 | 48.83721 | 40799 ft | 534 kts | 102° |
| 2026-05-07 15:32 | 23.37329 | 48.91705 | 40798 ft | 534 kts | 102° |
| 2026-05-07 15:32 | 23.36186 | 48.99683 | 40787 ft | 533 kts | 102° |
| 2026-05-07 15:33 | 23.35039 | 49.07659 | 40788 ft | 533 kts | 102° |
| 2026-05-07 15:33 | 23.33887 | 49.15627 | 40790 ft | 533 kts | 102° |
| 2026-05-07 15:34 | 23.32741 | 49.23600 | 40786 ft | 533 kts | 102° |
| 2026-05-07 15:34 | 23.31596 | 49.31567 | 40789 ft | 533 kts | 102° |
| 2026-05-07 15:35 | 23.30447 | 49.39522 | 40790 ft | 533 kts | 102° |
| 2026-05-07 15:35 | 23.29293 | 49.47479 | 40790 ft | 532 kts | 102° |
| 2026-05-07 15:36 | 23.28142 | 49.55384 | 40785 ft | 532 kts | 102° |
| 2026-05-07 15:36 | 23.26981 | 49.63323 | 40787 ft | 532 kts | 102° |
| 2026-05-07 15:37 | 23.25817 | 49.71264 | 40785 ft | 532 kts | 102° |
| 2026-05-07 15:37 | 23.24647 | 49.79212 | 40785 ft | 531 kts | 102° |
| 2026-05-07 15:38 | 23.23475 | 49.87141 | 40785 ft | 531 kts | 102° |
| 2026-05-07 15:38 | 23.22298 | 49.95077 | 40786 ft | 531 kts | 102° |
| 2026-05-07 15:39 | 23.21119 | 50.03005 | 40789 ft | 531 kts | 102° |
| 2026-05-07 15:39 | 23.19936 | 50.10923 | 40784 ft | 531 kts | 102° |
| 2026-05-07 15:40 | 23.18750 | 50.18838 | 40785 ft | 531 kts | 102° |
| 2026-05-07 15:40 | 23.17560 | 50.26751 | 40782 ft | 530 kts | 102° |
| 2026-05-07 15:41 | 23.16367 | 50.34658 | 40782 ft | 530 kts | 102° |
| 2026-05-07 15:41 | 23.15172 | 50.42552 | 40782 ft | 530 kts | 102° |
| 2026-05-07 15:42 | 23.13971 | 50.50454 | 40779 ft | 530 kts | 102° |
| 2026-05-07 15:42 | 23.12768 | 50.58343 | 40782 ft | 529 kts | 102° |
| 2026-05-07 15:43 | 23.11561 | 50.66231 | 40779 ft | 529 kts | 102° |
| 2026-05-07 15:43 | 23.10354 | 50.74097 | 40779 ft | 528 kts | 102° |
| 2026-05-07 15:44 | 23.09141 | 50.81969 | 40776 ft | 528 kts | 102° |
| 2026-05-07 15:44 | 23.07926 | 50.89831 | 40776 ft | 528 kts | 102° |
| 2026-05-07 15:45 | 23.06707 | 50.97685 | 40777 ft | 528 kts | 102° |
| 2026-05-07 15:45 | 23.05486 | 51.05536 | 40777 ft | 527 kts | 102° |
| 2026-05-07 15:46 | 23.03647 | 51.17306 | 40774 ft | 527 kts | 102° |
| 2026-05-07 15:47 | 23.02417 | 51.25141 | 40772 ft | 526 kts | 102° |
| 2026-05-07 15:47 | 23.01182 | 51.32982 | 40773 ft | 527 kts | 102° |
| 2026-05-07 15:48 | 22.99946 | 51.40807 | 40773 ft | 526 kts | 102° |
| 2026-05-07 15:48 | 22.98707 | 51.48627 | 40774 ft | 526 kts | 102° |
| 2026-05-07 15:49 | 22.97464 | 51.56445 | 40772 ft | 525 kts | 102° |
| 2026-05-07 15:49 | 22.96217 | 51.64259 | 40773 ft | 525 kts | 102° |
| 2026-05-07 15:50 | 22.94968 | 51.72065 | 40775 ft | 525 kts | 102° |
| 2026-05-07 15:50 | 22.93716 | 51.79863 | 40770 ft | 525 kts | 102° |
| 2026-05-07 15:51 | 22.92469 | 51.87607 | 40770 ft | 524 kts | 102° |
| 2026-05-07 15:51 | 22.91415 | 51.94127 | 40775 ft | 524 kts | 102° |
| 2026-05-07 15:52 | 22.89951 | 52.03163 | 40776 ft | 524 kts | 102° |
| 2026-05-07 15:52 | 22.88686 | 52.10942 | 40768 ft | 523 kts | 102° |
| 2026-05-07 15:53 | 22.87418 | 52.18717 | 40773 ft | 523 kts | 102° |
| 2026-05-07 15:53 | 22.86148 | 52.26476 | 40775 ft | 523 kts | 102° |
| 2026-05-07 15:54 | 22.84875 | 52.34227 | 40778 ft | 522 kts | 102° |
| 2026-05-07 15:54 | 22.83806 | 52.40728 | 40769 ft | 523 kts | 102° |
| 2026-05-07 15:55 | 22.82588 | 52.48496 | 40777 ft | 523 kts | 98° |
| 2026-05-07 15:55 | 22.82250 | 52.56386 | 40780 ft | 524 kts | 92° |
| 2026-05-07 15:56 | 22.82060 | 52.64267 | 40778 ft | 524 kts | 93° |
| 2026-05-07 15:56 | 22.81854 | 52.72160 | 40774 ft | 523 kts | 93° |
| 2026-05-07 15:57 | 22.81644 | 52.80047 | 40778 ft | 523 kts | 93° |
| 2026-05-07 15:57 | 22.81431 | 52.87925 | 40781 ft | 523 kts | 93° |
| 2026-05-07 15:58 | 22.81214 | 52.95806 | 40782 ft | 523 kts | 93° |
| 2026-05-07 15:58 | 22.80994 | 53.03671 | 40783 ft | 523 kts | 93° |
| 2026-05-07 15:59 | 22.80770 | 53.11547 | 40783 ft | 522 kts | 93° |
| 2026-05-07 15:59 | 22.80543 | 53.19364 | 40781 ft | 522 kts | 93° |
| 2026-05-07 16:00 | 22.80310 | 53.27271 | 40781 ft | 522 kts | 93° |
| 2026-05-07 16:00 | 22.80075 | 53.35130 | 40779 ft | 522 kts | 93° |
| 2026-05-07 16:01 | 22.79835 | 53.42997 | 40786 ft | 522 kts | 93° |
| 2026-05-07 16:01 | 22.79592 | 53.50858 | 40789 ft | 522 kts | 93° |
| 2026-05-07 16:02 | 22.79345 | 53.58708 | 40783 ft | 522 kts | 93° |
| 2026-05-07 16:02 | 22.79096 | 53.66509 | 40785 ft | 521 kts | 93° |
| 2026-05-07 16:03 | 22.78843 | 53.74327 | 40787 ft | 511 kts | 93° |
| 2026-05-07 16:03 | 22.78590 | 53.81980 | 40790 ft | 513 kts | 93° |
| 2026-05-07 16:04 | 22.78322 | 53.89868 | 40790 ft | 524 kts | 93° |
| 2026-05-07 16:04 | 22.78215 | 53.97660 | 40786 ft | 522 kts | 87° |
| 2026-05-07 16:05 | 22.79199 | 54.05457 | 40791 ft | 523 kts | 78° |
| 2026-05-07 16:05 | 22.80797 | 54.13156 | 40788 ft | 523 kts | 78° |
| 2026-05-07 16:06 | 22.82355 | 54.20852 | 40791 ft | 523 kts | 78° |
| 2026-05-07 16:06 | 22.83909 | 54.28537 | 40792 ft | 523 kts | 78° |
| 2026-05-07 16:07 | 22.85468 | 54.36251 | 40793 ft | 523 kts | 78° |
| 2026-05-07 16:07 | 22.87022 | 54.43962 | 40795 ft | 523 kts | 78° |
| 2026-05-07 16:08 | 22.88573 | 54.51674 | 40794 ft | 523 kts | 78° |
| 2026-05-07 16:08 | 22.90116 | 54.59373 | 40796 ft | 523 kts | 78° |
| 2026-05-07 16:09 | 22.91661 | 54.67094 | 40794 ft | 523 kts | 78° |
| 2026-05-07 16:09 | 22.93200 | 54.74813 | 40791 ft | 523 kts | 78° |
| 2026-05-07 16:10 | 22.94736 | 54.82531 | 40794 ft | 524 kts | 78° |
| 2026-05-07 16:10 | 22.96260 | 54.90212 | 40794 ft | 524 kts | 78° |
| 2026-05-07 16:11 | 22.97790 | 54.97946 | 40799 ft | 524 kts | 78° |
| 2026-05-07 16:11 | 22.99325 | 55.05726 | 40801 ft | 524 kts | 78° |
| 2026-05-07 16:12 | 23.01173 | 55.13316 | 40808 ft | 524 kts | 67° |
| 2026-05-07 16:12 | 23.04929 | 55.20056 | 40810 ft | 522 kts | 48° |
| 2026-05-07 16:13 | 23.10398 | 55.25209 | 40811 ft | 521 kts | 30° |
| 2026-05-07 16:13 | 23.16985 | 55.28320 | 40812 ft | 515 kts | 12° |
| 2026-05-07 16:14 | 23.23929 | 55.30329 | 40820 ft | 517 kts | 13° |
| 2026-05-07 16:14 | 23.30873 | 55.32381 | 40816 ft | 517 kts | 13° |
| 2026-05-07 16:15 | 23.37812 | 55.34433 | 40816 ft | 517 kts | 13° |
| 2026-05-07 16:15 | 23.44757 | 55.36485 | 40817 ft | 517 kts | 13° |
| 2026-05-07 16:16 | 23.51698 | 55.38539 | 40826 ft | 517 kts | 13° |
| 2026-05-07 16:16 | 23.58649 | 55.40595 | 40822 ft | 517 kts | 13° |
| 2026-05-07 16:17 | 23.65595 | 55.42652 | 40823 ft | 517 kts | 13° |
| 2026-05-07 16:17 | 23.72546 | 55.44713 | 40826 ft | 518 kts | 12° |
| 2026-05-07 16:18 | 23.79500 | 55.46777 | 40827 ft | 518 kts | 12° |
| 2026-05-07 16:18 | 23.86460 | 55.48845 | 40832 ft | 518 kts | 12° |
| 2026-05-07 16:19 | 23.93376 | 55.50899 | 40639 ft | 510 kts | 12° |
| 2026-05-07 16:19 | 23.96792 | 55.51946 | 40035 ft | 511 kts | 16° |
| 2026-05-07 16:19 | 24.00044 | 55.53416 | 39321 ft | 516 kts | 25° |
| 2026-05-07 16:19 | 24.03126 | 55.55462 | 38592 ft | 520 kts | 34° |
| 2026-05-07 16:20 | 24.05917 | 55.58001 | 37668 ft | 524 kts | 41° |
| 2026-05-07 16:20 | 24.08610 | 55.60697 | 36395 ft | 528 kts | 40° |
| 2026-05-07 16:20 | 24.11340 | 55.63404 | 35200 ft | 531 kts | 40° |
| 2026-05-07 16:20 | 24.14084 | 55.66119 | 34012 ft | 533 kts | 40° |
| 2026-05-07 16:21 | 24.16830 | 55.68838 | 33010 ft | 529 kts | 40° |
| 2026-05-07 16:21 | 24.19538 | 55.71524 | 32169 ft | 522 kts | 40° |
| 2026-05-07 16:21 | 24.22213 | 55.74180 | 31295 ft | 515 kts | 40° |
| 2026-05-07 16:21 | 24.24871 | 55.76820 | 30200 ft | 516 kts | 40° |
| 2026-05-07 16:22 | 24.27510 | 55.79443 | 29271 ft | 510 kts | 40° |
| 2026-05-07 16:22 | 24.30128 | 55.82047 | 28322 ft | 507 kts | 40° |
| 2026-05-07 16:22 | 24.32743 | 55.84647 | 27075 ft | 507 kts | 40° |
| 2026-05-07 16:22 | 24.35332 | 55.87225 | 26199 ft | 498 kts | 41° |
| 2026-05-07 16:23 | 24.37875 | 55.89759 | 25274 ft | 490 kts | 41° |
| 2026-05-07 16:23 | 24.40391 | 55.92266 | 24230 ft | 485 kts | 41° |
| 2026-05-07 16:23 | 24.42869 | 55.94738 | 23304 ft | 477 kts | 41° |
| 2026-05-07 16:23 | 24.45306 | 55.97170 | 22282 ft | 469 kts | 41° |
| 2026-05-07 16:24 | 24.47697 | 55.99557 | 21289 ft | 460 kts | 41° |
| 2026-05-07 16:24 | 24.50040 | 56.01897 | 20345 ft | 451 kts | 41° |
| 2026-05-07 16:24 | 24.52333 | 56.04188 | 19426 ft | 443 kts | 41° |
| 2026-05-07 16:24 | 24.54589 | 56.06443 | 18513 ft | 435 kts | 42° |
| 2026-05-07 16:25 | 24.56807 | 56.08667 | 17535 ft | 426 kts | 42° |
| 2026-05-07 16:25 | 24.59121 | 56.10650 | 16469 ft | 420 kts | 32° |
| 2026-05-07 16:25 | 24.61700 | 56.12089 | 15445 ft | 414 kts | 21° |
| 2026-05-07 16:25 | 24.64449 | 56.12967 | 14466 ft | 410 kts | 11° |
| 2026-05-07 16:26 | 24.67241 | 56.13461 | 13431 ft | 405 kts | 10° |
| 2026-05-07 16:26 | 24.70001 | 56.13959 | 12372 ft | 399 kts | 10° |
| 2026-05-07 16:26 | 24.72689 | 56.14458 | 11284 ft | 397 kts | 10° |
| 2026-05-07 16:26 | 24.74531 | 56.14801 | 10520 ft | 396 kts | 9° |
| 2026-05-07 16:27 | 24.78133 | 56.15276 | 9143 ft | 393 kts | 356° |
| 2026-05-07 16:27 | 24.80808 | 56.14811 | 8552 ft | 385 kts | 340° |
| 2026-05-07 16:27 | 24.83106 | 56.13535 | 8254 ft | 358 kts | 321° |
| 2026-05-07 16:27 | 24.84817 | 56.11715 | 8057 ft | 332 kts | 306° |
| 2026-05-07 16:28 | 24.85980 | 56.09630 | 8019 ft | 310 kts | 296° |
| 2026-05-07 16:28 | 24.87016 | 56.07503 | 8024 ft | 320 kts | 297° |
| 2026-05-07 16:28 | 24.88101 | 56.05360 | 8025 ft | 323 kts | 297° |
| 2026-05-07 16:28 | 24.89206 | 56.03191 | 8027 ft | 324 kts | 298° |
| 2026-05-07 16:29 | 24.90306 | 56.01031 | 8030 ft | 323 kts | 297° |
| 2026-05-07 16:29 | 24.91400 | 55.98871 | 8022 ft | 323 kts | 297° |
| 2026-05-07 16:29 | 24.92489 | 55.96716 | 7879 ft | 320 kts | 297° |
| 2026-05-07 16:29 | 24.93567 | 55.94576 | 7386 ft | 320 kts | 298° |
| 2026-05-07 16:30 | 24.94639 | 55.92446 | 6834 ft | 316 kts | 298° |
| 2026-05-07 16:30 | 24.95707 | 55.90322 | 6016 ft | 319 kts | 298° |
| 2026-05-07 16:30 | 24.96774 | 55.88201 | 5461 ft | 312 kts | 298° |
| 2026-05-07 16:30 | 24.97799 | 55.86165 | 5192 ft | 295 kts | 298° |
| 2026-05-07 16:31 | 24.98769 | 55.84239 | 5098 ft | 281 kts | 298° |
| 2026-05-07 16:31 | 24.99708 | 55.82372 | 5029 ft | 276 kts | 298° |
| 2026-05-07 16:31 | 25.00662 | 55.80543 | 4957 ft | 275 kts | 301° |
| 2026-05-07 16:31 | 25.01662 | 55.78765 | 4729 ft | 270 kts | 302° |
| 2026-05-07 16:32 | 25.02604 | 55.77121 | 4503 ft | 265 kts | 302° |
| 2026-05-07 16:32 | 25.03579 | 55.75409 | 4262 ft | 261 kts | 302° |
| 2026-05-07 16:32 | 25.04529 | 55.73728 | 4079 ft | 255 kts | 301° |
| 2026-05-07 16:32 | 25.05456 | 55.72077 | 3951 ft | 250 kts | 301° |
| 2026-05-07 16:33 | 25.06354 | 55.70473 | 3827 ft | 242 kts | 301° |
| 2026-05-07 16:33 | 25.07227 | 55.68909 | 3699 ft | 236 kts | 301° |
| 2026-05-07 16:33 | 25.08066 | 55.67405 | 3599 ft | 225 kts | 301° |
| 2026-05-07 16:33 | 25.08877 | 55.65967 | 3463 ft | 216 kts | 302° |
| 2026-05-07 16:34 | 25.09664 | 55.64627 | 3358 ft | 202 kts | 302° |
| 2026-05-07 16:34 | 25.10406 | 55.63309 | 3240 ft | 200 kts | 301° |
| 2026-05-07 16:34 | 25.11116 | 55.62026 | 3152 ft | 193 kts | 301° |
| 2026-05-07 16:34 | 25.11814 | 55.60767 | 3031 ft | 192 kts | 301° |
| 2026-05-07 16:35 | 25.12501 | 55.59528 | 2912 ft | 192 kts | 301° |
| 2026-05-07 16:35 | 25.13196 | 55.58269 | 2790 ft | 192 kts | 301° |
| 2026-05-07 16:35 | 25.13890 | 55.57019 | 2669 ft | 191 kts | 302° |
| 2026-05-07 16:35 | 25.14600 | 55.55768 | 2556 ft | 191 kts | 302° |
| 2026-05-07 16:36 | 25.15313 | 55.54535 | 2419 ft | 191 kts | 301° |
| 2026-05-07 16:36 | 25.15963 | 55.53262 | 2315 ft | 189 kts | 298° |
| 2026-05-07 16:36 | 25.16622 | 55.51993 | 2248 ft | 191 kts | 301° |
| 2026-05-07 16:36 | 25.17335 | 55.50768 | 2117 ft | 187 kts | 303° |
| 2026-05-07 16:37 | 25.18032 | 55.49625 | 2021 ft | 174 kts | 302° |
| 2026-05-07 16:37 | 25.18646 | 55.48493 | 1807 ft | 165 kts | 299° |
| 2026-05-07 16:37 | 25.19180 | 55.47456 | 1610 ft | 148 kts | 300° |
| 2026-05-07 16:37 | 25.19687 | 55.46502 | 1438 ft | 142 kts | 299° |
| 2026-05-07 16:38 | 25.20195 | 55.45570 | 1269 ft | 142 kts | 303° |
| 2026-05-07 16:38 | 25.20731 | 55.44661 | 1092 ft | 141 kts | 302° |
| 2026-05-07 16:38 | 25.21250 | 55.43745 | 912 ft | 141 kts | 301° |
| 2026-05-07 16:38 | 25.21734 | 55.42831 | 739 ft | 137 kts | 300° |
| 2026-05-07 16:39 | 25.22229 | 55.41913 | 569 ft | 139 kts | 302° |
| 2026-05-07 16:39 | 25.22742 | 55.41006 | 410 ft | 138 kts | 303° |
| 2026-05-07 16:39 | 25.23245 | 55.40108 | 235 ft | 139 kts | 303° |
| 2026-05-07 16:39 | 25.23748 | 55.39202 | 42 ft | 136 kts | 303° |
| 2026-05-07 16:40 | 25.24170 | 55.38446 | 36 ft | 91 kts | 301° |
| 2026-05-07 16:40 | 25.24400 | 55.38030 | 35 ft | 37 kts | 301° |
| 2026-05-07 16:40 | 25.24442 | 55.37954 | 35 ft | 0 kts | 301° |
| 2026-05-07 16:41 | 25.24444 | 55.37950 | 35 ft | 3 kts | 301° |
| 2026-05-07 16:41 | 25.24459 | 55.37924 | 35 ft | 9 kts | 301° |
| 2026-05-07 16:41 | 25.24526 | 55.37803 | 34 ft | 18 kts | 302° |
| 2026-05-07 16:42 | 25.24586 | 55.37665 | 33 ft | 22 kts | 288° |
| 2026-05-07 16:42 | 25.24616 | 55.37507 | 32 ft | 20 kts | 275° |
| 2026-05-07 16:42 | 25.24573 | 55.37394 | 28 ft | 12 kts | 189° |
| 2026-05-07 16:42 | 25.24523 | 55.37439 | 28 ft | 12 kts | 120° |
| 2026-05-07 16:43 | 25.24490 | 55.37500 | 28 ft | 15 kts | 121° |
| 2026-05-07 16:43 | 25.24402 | 55.37658 | 28 ft | 15 kts | 122° |
| 2026-05-07 16:43 | 25.24396 | 55.37667 | 28 ft | 0 kts | 122° |
| 2026-05-07 16:43 | 25.24385 | 55.37686 | 28 ft | 6 kts | 123° |
| 2026-05-07 16:44 | 25.24350 | 55.37747 | 28 ft | 12 kts | 123° |
| 2026-05-07 16:44 | 25.24283 | 55.37774 | 27 ft | 11 kts | 206° |
| 2026-05-07 16:44 | 25.24271 | 55.37717 | 27 ft | 9 kts | 293° |
| 2026-05-07 16:44 | 25.24302 | 55.37640 | 27 ft | 13 kts | 294° |
| 2026-05-07 16:45 | 25.24356 | 55.37556 | 27 ft | 15 kts | 306° |
| 2026-05-07 16:45 | 25.24412 | 55.37455 | 27 ft | 15 kts | 306° |
| 2026-05-07 16:45 | 25.24436 | 55.37429 | 27 ft | 5 kts | 316° |
| 2026-05-07 16:45 | 25.24474 | 55.37360 | 27 ft | 13 kts | 297° |
| 2026-05-07 16:46 | 25.24521 | 55.37262 | 27 ft | 15 kts | 302° |
| 2026-05-07 16:46 | 25.24556 | 55.37200 | 27 ft | 7 kts | 302° |
| 2026-05-07 16:46 | 25.24581 | 55.37155 | 27 ft | 0 kts | 302° |
| 2026-05-07 16:47 | 25.24583 | 55.37152 | 27 ft | 2 kts | 302° |
| 2026-05-07 16:47 | 25.24595 | 55.37131 | 27 ft | 4 kts | 302° |
| 2026-05-07 16:48 | 25.24605 | 55.37113 | 27 ft | 1 kts | 282° |
| 2026-05-07 16:48 | 25.24604 | 55.37104 | 27 ft | 1 kts | 246° |
| 2026-05-07 16:48 | 25.24589 | 55.37087 | 27 ft | 5 kts | 215° |
| 2026-05-07 16:48 | 25.24557 | 55.37064 | 27 ft | 6 kts | 212° |
| 2026-05-07 16:49 | 25.24536 | 55.37049 | 26 ft | 0 kts | 212° |
| 2026-05-07 16:49 | 25.24530 | 55.37045 | 26 ft | 1 kts | 210° |